<?xml version="1.0" encoding="UTF-8" standalone="no" ?>
<gpx xmlns="http://www.topografix.com/GPX/1/1" xmlns:xsi="http://www.w3.org/2001/XMLSchema-instance" xsi:schemaLocation="http://www.topografix.com/GPX/1/1 http://www.topografix.com/GPX/1/1/gpx.xsd" version="1.1" creator="VisuGPX - https://www.visugpx.com">
  <metadata>
    <name>83 - M - Lorgues  </name>
    <desc><![CDATA[83 - M - Lorgues : St Jaume Pey Cervier 
2023-04-05]]></desc>
  </metadata>
  <trk>
    <name><![CDATA[Lorgues  St Jaume Pey Cervier 2023-04-05-01]]></name>
    <trkseg>
      <trkpt lat="43.48493" lon="6.33013">
        <ele>173</ele>
        <time>2023-04-05T11:46:49Z</time>
      </trkpt>
      <trkpt lat="43.48487" lon="6.33013">
        <ele>173</ele>
        <time>2023-04-05T11:46:52Z</time>
      </trkpt>
      <trkpt lat="43.48494" lon="6.33014">
        <ele>173</ele>
        <time>2023-04-05T11:47:02Z</time>
      </trkpt>
      <trkpt lat="43.48495" lon="6.33015">
        <ele>173.2</ele>
        <time>2023-04-05T11:47:12Z</time>
      </trkpt>
      <trkpt lat="43.48491" lon="6.3302">
        <ele>173.2</ele>
        <time>2023-04-05T11:47:22Z</time>
      </trkpt>
      <trkpt lat="43.48489" lon="6.33021">
        <ele>173.1</ele>
        <time>2023-04-05T11:47:32Z</time>
      </trkpt>
      <trkpt lat="43.48489" lon="6.33019">
        <ele>173.3</ele>
        <time>2023-04-05T11:47:42Z</time>
      </trkpt>
      <trkpt lat="43.48488" lon="6.33018">
        <ele>173.5</ele>
        <time>2023-04-05T11:47:52Z</time>
      </trkpt>
      <trkpt lat="43.48488" lon="6.33019">
        <ele>173.3</ele>
        <time>2023-04-05T11:48:02Z</time>
      </trkpt>
      <trkpt lat="43.48487" lon="6.33019">
        <ele>173.1</ele>
        <time>2023-04-05T11:48:12Z</time>
      </trkpt>
      <trkpt lat="43.48487" lon="6.33021">
        <ele>173.2</ele>
        <time>2023-04-05T11:48:22Z</time>
      </trkpt>
      <trkpt lat="43.48479" lon="6.33022">
        <ele>172.6</ele>
        <time>2023-04-05T11:48:32Z</time>
      </trkpt>
      <trkpt lat="43.48465" lon="6.33025">
        <ele>172.8</ele>
        <time>2023-04-05T11:48:42Z</time>
      </trkpt>
      <trkpt lat="43.48457" lon="6.33028">
        <ele>173.8</ele>
        <time>2023-04-05T11:48:52Z</time>
      </trkpt>
      <trkpt lat="43.48453" lon="6.33022">
        <ele>172.9</ele>
        <time>2023-04-05T11:49:02Z</time>
      </trkpt>
      <trkpt lat="43.4844" lon="6.33012">
        <ele>174.5</ele>
        <time>2023-04-05T11:49:12Z</time>
      </trkpt>
      <trkpt lat="43.48439" lon="6.33">
        <ele>174.6</ele>
        <time>2023-04-05T11:49:22Z</time>
      </trkpt>
      <trkpt lat="43.48438" lon="6.3298">
        <ele>176.3</ele>
        <time>2023-04-05T11:49:32Z</time>
      </trkpt>
      <trkpt lat="43.48434" lon="6.32964">
        <ele>176.3</ele>
        <time>2023-04-05T11:49:42Z</time>
      </trkpt>
      <trkpt lat="43.48431" lon="6.3294">
        <ele>177.7</ele>
        <time>2023-04-05T11:49:52Z</time>
      </trkpt>
      <trkpt lat="43.48431" lon="6.32925">
        <ele>176.2</ele>
        <time>2023-04-05T11:50:02Z</time>
      </trkpt>
      <trkpt lat="43.48432" lon="6.32906">
        <ele>176.9</ele>
        <time>2023-04-05T11:50:12Z</time>
      </trkpt>
      <trkpt lat="43.4843" lon="6.32883">
        <ele>178.1</ele>
        <time>2023-04-05T11:50:22Z</time>
      </trkpt>
      <trkpt lat="43.48428" lon="6.32866">
        <ele>178.4</ele>
        <time>2023-04-05T11:50:32Z</time>
      </trkpt>
      <trkpt lat="43.48428" lon="6.32867">
        <ele>179.2</ele>
        <time>2023-04-05T11:50:42Z</time>
      </trkpt>
      <trkpt lat="43.48427" lon="6.32868">
        <ele>179.2</ele>
        <time>2023-04-05T11:50:52Z</time>
      </trkpt>
      <trkpt lat="43.48422" lon="6.32861">
        <ele>178.5</ele>
        <time>2023-04-05T11:51:02Z</time>
      </trkpt>
      <trkpt lat="43.48418" lon="6.3284">
        <ele>178</ele>
        <time>2023-04-05T11:51:12Z</time>
      </trkpt>
      <trkpt lat="43.48415" lon="6.32824">
        <ele>177.8</ele>
        <time>2023-04-05T11:51:22Z</time>
      </trkpt>
      <trkpt lat="43.48413" lon="6.32807">
        <ele>178.4</ele>
        <time>2023-04-05T11:51:32Z</time>
      </trkpt>
      <trkpt lat="43.4841" lon="6.32789">
        <ele>180</ele>
        <time>2023-04-05T11:51:42Z</time>
      </trkpt>
      <trkpt lat="43.48404" lon="6.32779">
        <ele>179.8</ele>
        <time>2023-04-05T11:51:52Z</time>
      </trkpt>
      <trkpt lat="43.48394" lon="6.32766">
        <ele>179.7</ele>
        <time>2023-04-05T11:52:02Z</time>
      </trkpt>
      <trkpt lat="43.48387" lon="6.32756">
        <ele>178.7</ele>
        <time>2023-04-05T11:52:12Z</time>
      </trkpt>
      <trkpt lat="43.48376" lon="6.32742">
        <ele>179.1</ele>
        <time>2023-04-05T11:52:22Z</time>
      </trkpt>
      <trkpt lat="43.4837" lon="6.32731">
        <ele>178.7</ele>
        <time>2023-04-05T11:52:32Z</time>
      </trkpt>
      <trkpt lat="43.48364" lon="6.32717">
        <ele>179.4</ele>
        <time>2023-04-05T11:52:42Z</time>
      </trkpt>
      <trkpt lat="43.48355" lon="6.32706">
        <ele>181.9</ele>
        <time>2023-04-05T11:52:52Z</time>
      </trkpt>
      <trkpt lat="43.48354" lon="6.32693">
        <ele>182.1</ele>
        <time>2023-04-05T11:53:02Z</time>
      </trkpt>
      <trkpt lat="43.48351" lon="6.3268">
        <ele>184.6</ele>
        <time>2023-04-05T11:53:12Z</time>
      </trkpt>
      <trkpt lat="43.48348" lon="6.32669">
        <ele>186.3</ele>
        <time>2023-04-05T11:53:22Z</time>
      </trkpt>
      <trkpt lat="43.48344" lon="6.32657">
        <ele>188.6</ele>
        <time>2023-04-05T11:53:32Z</time>
      </trkpt>
      <trkpt lat="43.48337" lon="6.32644">
        <ele>190</ele>
        <time>2023-04-05T11:53:42Z</time>
      </trkpt>
      <trkpt lat="43.48333" lon="6.32625">
        <ele>190.9</ele>
        <time>2023-04-05T11:53:52Z</time>
      </trkpt>
      <trkpt lat="43.48326" lon="6.32611">
        <ele>190.7</ele>
        <time>2023-04-05T11:54:02Z</time>
      </trkpt>
      <trkpt lat="43.48325" lon="6.32592">
        <ele>190.5</ele>
        <time>2023-04-05T11:54:12Z</time>
      </trkpt>
      <trkpt lat="43.48322" lon="6.32575">
        <ele>189.3</ele>
        <time>2023-04-05T11:54:22Z</time>
      </trkpt>
      <trkpt lat="43.48321" lon="6.32562">
        <ele>188.5</ele>
        <time>2023-04-05T11:54:32Z</time>
      </trkpt>
      <trkpt lat="43.48318" lon="6.3256">
        <ele>187.8</ele>
        <time>2023-04-05T11:54:42Z</time>
      </trkpt>
      <trkpt lat="43.48313" lon="6.32546">
        <ele>187.5</ele>
        <time>2023-04-05T11:54:52Z</time>
      </trkpt>
      <trkpt lat="43.48313" lon="6.32535">
        <ele>187.2</ele>
        <time>2023-04-05T11:55:02Z</time>
      </trkpt>
      <trkpt lat="43.4831" lon="6.32525">
        <ele>187</ele>
        <time>2023-04-05T11:55:12Z</time>
      </trkpt>
      <trkpt lat="43.48305" lon="6.32509">
        <ele>186.9</ele>
        <time>2023-04-05T11:55:22Z</time>
      </trkpt>
      <trkpt lat="43.48296" lon="6.32499">
        <ele>188.1</ele>
        <time>2023-04-05T11:55:32Z</time>
      </trkpt>
      <trkpt lat="43.48288" lon="6.32491">
        <ele>189.7</ele>
        <time>2023-04-05T11:55:42Z</time>
      </trkpt>
      <trkpt lat="43.4828" lon="6.32482">
        <ele>191.9</ele>
        <time>2023-04-05T11:55:52Z</time>
      </trkpt>
      <trkpt lat="43.4827" lon="6.32472">
        <ele>192</ele>
        <time>2023-04-05T11:56:02Z</time>
      </trkpt>
      <trkpt lat="43.48268" lon="6.3246">
        <ele>193</ele>
        <time>2023-04-05T11:56:12Z</time>
      </trkpt>
      <trkpt lat="43.48258" lon="6.32444">
        <ele>194</ele>
        <time>2023-04-05T11:56:22Z</time>
      </trkpt>
      <trkpt lat="43.4825" lon="6.32433">
        <ele>193.1</ele>
        <time>2023-04-05T11:56:32Z</time>
      </trkpt>
      <trkpt lat="43.48243" lon="6.32413">
        <ele>193.3</ele>
        <time>2023-04-05T11:56:42Z</time>
      </trkpt>
      <trkpt lat="43.48237" lon="6.32402">
        <ele>192.7</ele>
        <time>2023-04-05T11:56:52Z</time>
      </trkpt>
      <trkpt lat="43.48231" lon="6.32388">
        <ele>192.4</ele>
        <time>2023-04-05T11:57:02Z</time>
      </trkpt>
      <trkpt lat="43.48228" lon="6.32375">
        <ele>193.1</ele>
        <time>2023-04-05T11:57:12Z</time>
      </trkpt>
      <trkpt lat="43.48221" lon="6.32357">
        <ele>194.3</ele>
        <time>2023-04-05T11:57:22Z</time>
      </trkpt>
      <trkpt lat="43.48216" lon="6.32339">
        <ele>194.2</ele>
        <time>2023-04-05T11:57:32Z</time>
      </trkpt>
      <trkpt lat="43.48211" lon="6.32327">
        <ele>194.1</ele>
        <time>2023-04-05T11:57:42Z</time>
      </trkpt>
      <trkpt lat="43.48212" lon="6.32311">
        <ele>194.1</ele>
        <time>2023-04-05T11:57:52Z</time>
      </trkpt>
      <trkpt lat="43.48215" lon="6.32296">
        <ele>194.3</ele>
        <time>2023-04-05T11:58:02Z</time>
      </trkpt>
      <trkpt lat="43.48209" lon="6.32285">
        <ele>194.6</ele>
        <time>2023-04-05T11:58:12Z</time>
      </trkpt>
      <trkpt lat="43.4821" lon="6.32269">
        <ele>195.3</ele>
        <time>2023-04-05T11:58:22Z</time>
      </trkpt>
      <trkpt lat="43.48211" lon="6.32254">
        <ele>195.1</ele>
        <time>2023-04-05T11:58:32Z</time>
      </trkpt>
      <trkpt lat="43.48217" lon="6.32239">
        <ele>195.4</ele>
        <time>2023-04-05T11:58:42Z</time>
      </trkpt>
      <trkpt lat="43.48217" lon="6.32222">
        <ele>194.6</ele>
        <time>2023-04-05T11:58:52Z</time>
      </trkpt>
      <trkpt lat="43.48209" lon="6.32209">
        <ele>195.2</ele>
        <time>2023-04-05T11:59:02Z</time>
      </trkpt>
      <trkpt lat="43.482" lon="6.32198">
        <ele>196.1</ele>
        <time>2023-04-05T11:59:12Z</time>
      </trkpt>
      <trkpt lat="43.48196" lon="6.32188">
        <ele>196.2</ele>
        <time>2023-04-05T11:59:22Z</time>
      </trkpt>
      <trkpt lat="43.48187" lon="6.32179">
        <ele>196</ele>
        <time>2023-04-05T11:59:33Z</time>
      </trkpt>
      <trkpt lat="43.4818" lon="6.32169">
        <ele>198</ele>
        <time>2023-04-05T11:59:43Z</time>
      </trkpt>
      <trkpt lat="43.48172" lon="6.3216">
        <ele>198.4</ele>
        <time>2023-04-05T11:59:53Z</time>
      </trkpt>
      <trkpt lat="43.48169" lon="6.32146">
        <ele>198.7</ele>
        <time>2023-04-05T12:00:03Z</time>
      </trkpt>
      <trkpt lat="43.48165" lon="6.32132">
        <ele>198.5</ele>
        <time>2023-04-05T12:00:13Z</time>
      </trkpt>
      <trkpt lat="43.48163" lon="6.32114">
        <ele>198.6</ele>
        <time>2023-04-05T12:00:23Z</time>
      </trkpt>
      <trkpt lat="43.48159" lon="6.32096">
        <ele>198.2</ele>
        <time>2023-04-05T12:00:33Z</time>
      </trkpt>
      <trkpt lat="43.48159" lon="6.32082">
        <ele>197.6</ele>
        <time>2023-04-05T12:00:43Z</time>
      </trkpt>
      <trkpt lat="43.48159" lon="6.32069">
        <ele>196.7</ele>
        <time>2023-04-05T12:00:53Z</time>
      </trkpt>
      <trkpt lat="43.48157" lon="6.32053">
        <ele>195.1</ele>
        <time>2023-04-05T12:01:03Z</time>
      </trkpt>
      <trkpt lat="43.48153" lon="6.32037">
        <ele>194.3</ele>
        <time>2023-04-05T12:01:13Z</time>
      </trkpt>
      <trkpt lat="43.48144" lon="6.32026">
        <ele>194.6</ele>
        <time>2023-04-05T12:01:23Z</time>
      </trkpt>
      <trkpt lat="43.48135" lon="6.32013">
        <ele>195.4</ele>
        <time>2023-04-05T12:01:33Z</time>
      </trkpt>
      <trkpt lat="43.48133" lon="6.31995">
        <ele>196</ele>
        <time>2023-04-05T12:01:44Z</time>
      </trkpt>
      <trkpt lat="43.48132" lon="6.3198">
        <ele>197.3</ele>
        <time>2023-04-05T12:01:54Z</time>
      </trkpt>
      <trkpt lat="43.48127" lon="6.31966">
        <ele>197.5</ele>
        <time>2023-04-05T12:02:04Z</time>
      </trkpt>
      <trkpt lat="43.48125" lon="6.31952">
        <ele>197.8</ele>
        <time>2023-04-05T12:02:14Z</time>
      </trkpt>
      <trkpt lat="43.48126" lon="6.3194">
        <ele>197.8</ele>
        <time>2023-04-05T12:02:24Z</time>
      </trkpt>
      <trkpt lat="43.48126" lon="6.3193">
        <ele>196.7</ele>
        <time>2023-04-05T12:02:34Z</time>
      </trkpt>
      <trkpt lat="43.48128" lon="6.31924">
        <ele>195.3</ele>
        <time>2023-04-05T12:02:44Z</time>
      </trkpt>
      <trkpt lat="43.48131" lon="6.31914">
        <ele>193.6</ele>
        <time>2023-04-05T12:02:54Z</time>
      </trkpt>
      <trkpt lat="43.48139" lon="6.31907">
        <ele>191.9</ele>
        <time>2023-04-05T12:03:04Z</time>
      </trkpt>
      <trkpt lat="43.48142" lon="6.3189">
        <ele>190.2</ele>
        <time>2023-04-05T12:03:14Z</time>
      </trkpt>
      <trkpt lat="43.48139" lon="6.31872">
        <ele>188.6</ele>
        <time>2023-04-05T12:03:24Z</time>
      </trkpt>
      <trkpt lat="43.48134" lon="6.31857">
        <ele>187.3</ele>
        <time>2023-04-05T12:03:34Z</time>
      </trkpt>
      <trkpt lat="43.48129" lon="6.31845">
        <ele>188.7</ele>
        <time>2023-04-05T12:03:44Z</time>
      </trkpt>
      <trkpt lat="43.48131" lon="6.3183">
        <ele>191.4</ele>
        <time>2023-04-05T12:03:54Z</time>
      </trkpt>
      <trkpt lat="43.48128" lon="6.31821">
        <ele>193.3</ele>
        <time>2023-04-05T12:04:04Z</time>
      </trkpt>
      <trkpt lat="43.48122" lon="6.31811">
        <ele>195.8</ele>
        <time>2023-04-05T12:04:14Z</time>
      </trkpt>
      <trkpt lat="43.48112" lon="6.31805">
        <ele>197.8</ele>
        <time>2023-04-05T12:04:24Z</time>
      </trkpt>
      <trkpt lat="43.48111" lon="6.31801">
        <ele>198.1</ele>
        <time>2023-04-05T12:04:34Z</time>
      </trkpt>
      <trkpt lat="43.48119" lon="6.31795">
        <ele>199.3</ele>
        <time>2023-04-05T12:04:44Z</time>
      </trkpt>
      <trkpt lat="43.48129" lon="6.31789">
        <ele>201.1</ele>
        <time>2023-04-05T12:04:54Z</time>
      </trkpt>
      <trkpt lat="43.48136" lon="6.31787">
        <ele>202.2</ele>
        <time>2023-04-05T12:05:04Z</time>
      </trkpt>
      <trkpt lat="43.48146" lon="6.31786">
        <ele>203.4</ele>
        <time>2023-04-05T12:05:14Z</time>
      </trkpt>
      <trkpt lat="43.48157" lon="6.31785">
        <ele>203.9</ele>
        <time>2023-04-05T12:05:24Z</time>
      </trkpt>
      <trkpt lat="43.48167" lon="6.31788">
        <ele>205.6</ele>
        <time>2023-04-05T12:05:34Z</time>
      </trkpt>
      <trkpt lat="43.48174" lon="6.31789">
        <ele>206.6</ele>
        <time>2023-04-05T12:05:44Z</time>
      </trkpt>
      <trkpt lat="43.48182" lon="6.31794">
        <ele>208.5</ele>
        <time>2023-04-05T12:05:54Z</time>
      </trkpt>
      <trkpt lat="43.48189" lon="6.31796">
        <ele>209.9</ele>
        <time>2023-04-05T12:06:04Z</time>
      </trkpt>
      <trkpt lat="43.48202" lon="6.31795">
        <ele>211.3</ele>
        <time>2023-04-05T12:06:14Z</time>
      </trkpt>
      <trkpt lat="43.4821" lon="6.31802">
        <ele>211.7</ele>
        <time>2023-04-05T12:06:24Z</time>
      </trkpt>
      <trkpt lat="43.48218" lon="6.31805">
        <ele>210.8</ele>
        <time>2023-04-05T12:06:34Z</time>
      </trkpt>
      <trkpt lat="43.48231" lon="6.31809">
        <ele>210.1</ele>
        <time>2023-04-05T12:06:47Z</time>
      </trkpt>
      <trkpt lat="43.48236" lon="6.31819">
        <ele>210.1</ele>
        <time>2023-04-05T12:06:57Z</time>
      </trkpt>
      <trkpt lat="43.48243" lon="6.31828">
        <ele>211.9</ele>
        <time>2023-04-05T12:07:07Z</time>
      </trkpt>
      <trkpt lat="43.48247" lon="6.31837">
        <ele>212.5</ele>
        <time>2023-04-05T12:07:17Z</time>
      </trkpt>
      <trkpt lat="43.48254" lon="6.31846">
        <ele>213.6</ele>
        <time>2023-04-05T12:07:27Z</time>
      </trkpt>
      <trkpt lat="43.48262" lon="6.31857">
        <ele>215</ele>
        <time>2023-04-05T12:07:37Z</time>
      </trkpt>
      <trkpt lat="43.48271" lon="6.31863">
        <ele>215.9</ele>
        <time>2023-04-05T12:07:47Z</time>
      </trkpt>
      <trkpt lat="43.48278" lon="6.3187">
        <ele>217</ele>
        <time>2023-04-05T12:07:57Z</time>
      </trkpt>
      <trkpt lat="43.48288" lon="6.31877">
        <ele>218.7</ele>
        <time>2023-04-05T12:08:07Z</time>
      </trkpt>
      <trkpt lat="43.48292" lon="6.31881">
        <ele>220.1</ele>
        <time>2023-04-05T12:08:17Z</time>
      </trkpt>
      <trkpt lat="43.48297" lon="6.31881">
        <ele>220.3</ele>
        <time>2023-04-05T12:08:27Z</time>
      </trkpt>
      <trkpt lat="43.483" lon="6.31886">
        <ele>222.5</ele>
        <time>2023-04-05T12:08:37Z</time>
      </trkpt>
      <trkpt lat="43.48302" lon="6.31878">
        <ele>223.7</ele>
        <time>2023-04-05T12:08:47Z</time>
      </trkpt>
      <trkpt lat="43.48301" lon="6.31876">
        <ele>222.5</ele>
        <time>2023-04-05T12:08:57Z</time>
      </trkpt>
      <trkpt lat="43.48302" lon="6.31876">
        <ele>222.1</ele>
        <time>2023-04-05T12:09:07Z</time>
      </trkpt>
      <trkpt lat="43.48301" lon="6.31878">
        <ele>222.1</ele>
        <time>2023-04-05T12:09:17Z</time>
      </trkpt>
      <trkpt lat="43.48301" lon="6.31878">
        <ele>222</ele>
        <time>2023-04-05T12:09:27Z</time>
      </trkpt>
      <trkpt lat="43.48304" lon="6.31876">
        <ele>222.1</ele>
        <time>2023-04-05T12:09:37Z</time>
      </trkpt>
      <trkpt lat="43.48307" lon="6.31873">
        <ele>221.6</ele>
        <time>2023-04-05T12:09:47Z</time>
      </trkpt>
      <trkpt lat="43.48309" lon="6.31876">
        <ele>222.4</ele>
        <time>2023-04-05T12:09:57Z</time>
      </trkpt>
      <trkpt lat="43.48308" lon="6.31876">
        <ele>221.9</ele>
        <time>2023-04-05T12:10:07Z</time>
      </trkpt>
      <trkpt lat="43.48314" lon="6.31879">
        <ele>224</ele>
        <time>2023-04-05T12:10:17Z</time>
      </trkpt>
      <trkpt lat="43.48319" lon="6.3188">
        <ele>224.5</ele>
        <time>2023-04-05T12:10:27Z</time>
      </trkpt>
      <trkpt lat="43.48326" lon="6.31887">
        <ele>225.8</ele>
        <time>2023-04-05T12:10:37Z</time>
      </trkpt>
      <trkpt lat="43.48332" lon="6.31889">
        <ele>228</ele>
        <time>2023-04-05T12:10:47Z</time>
      </trkpt>
      <trkpt lat="43.48338" lon="6.3189">
        <ele>229.9</ele>
        <time>2023-04-05T12:10:57Z</time>
      </trkpt>
      <trkpt lat="43.48343" lon="6.31889">
        <ele>232.1</ele>
        <time>2023-04-05T12:11:07Z</time>
      </trkpt>
      <trkpt lat="43.48348" lon="6.3189">
        <ele>234.5</ele>
        <time>2023-04-05T12:11:17Z</time>
      </trkpt>
      <trkpt lat="43.48351" lon="6.31892">
        <ele>237</ele>
        <time>2023-04-05T12:11:27Z</time>
      </trkpt>
      <trkpt lat="43.48354" lon="6.3189">
        <ele>239.3</ele>
        <time>2023-04-05T12:11:37Z</time>
      </trkpt>
      <trkpt lat="43.4836" lon="6.31888">
        <ele>242.2</ele>
        <time>2023-04-05T12:11:47Z</time>
      </trkpt>
      <trkpt lat="43.48367" lon="6.31889">
        <ele>244.3</ele>
        <time>2023-04-05T12:11:57Z</time>
      </trkpt>
      <trkpt lat="43.48371" lon="6.31889">
        <ele>246.3</ele>
        <time>2023-04-05T12:12:07Z</time>
      </trkpt>
      <trkpt lat="43.48375" lon="6.31891">
        <ele>249.1</ele>
        <time>2023-04-05T12:12:17Z</time>
      </trkpt>
      <trkpt lat="43.48378" lon="6.31894">
        <ele>251.5</ele>
        <time>2023-04-05T12:12:27Z</time>
      </trkpt>
      <trkpt lat="43.48388" lon="6.31896">
        <ele>253.9</ele>
        <time>2023-04-05T12:12:37Z</time>
      </trkpt>
      <trkpt lat="43.48398" lon="6.31894">
        <ele>255.7</ele>
        <time>2023-04-05T12:12:47Z</time>
      </trkpt>
      <trkpt lat="43.484" lon="6.31893">
        <ele>258.5</ele>
        <time>2023-04-05T12:12:57Z</time>
      </trkpt>
      <trkpt lat="43.48404" lon="6.31894">
        <ele>259.5</ele>
        <time>2023-04-05T12:13:07Z</time>
      </trkpt>
      <trkpt lat="43.48409" lon="6.31894">
        <ele>261.6</ele>
        <time>2023-04-05T12:13:17Z</time>
      </trkpt>
      <trkpt lat="43.48417" lon="6.31896">
        <ele>263.7</ele>
        <time>2023-04-05T12:13:27Z</time>
      </trkpt>
      <trkpt lat="43.48423" lon="6.31894">
        <ele>266.1</ele>
        <time>2023-04-05T12:13:37Z</time>
      </trkpt>
      <trkpt lat="43.48428" lon="6.31894">
        <ele>267.2</ele>
        <time>2023-04-05T12:13:47Z</time>
      </trkpt>
      <trkpt lat="43.48436" lon="6.31896">
        <ele>269.8</ele>
        <time>2023-04-05T12:13:57Z</time>
      </trkpt>
      <trkpt lat="43.48439" lon="6.3189">
        <ele>271.6</ele>
        <time>2023-04-05T12:14:07Z</time>
      </trkpt>
      <trkpt lat="43.48447" lon="6.31879">
        <ele>273.5</ele>
        <time>2023-04-05T12:14:17Z</time>
      </trkpt>
      <trkpt lat="43.48451" lon="6.31875">
        <ele>272</ele>
        <time>2023-04-05T12:14:27Z</time>
      </trkpt>
      <trkpt lat="43.48452" lon="6.31872">
        <ele>273</ele>
        <time>2023-04-05T12:14:37Z</time>
      </trkpt>
      <trkpt lat="43.48452" lon="6.3187">
        <ele>273.1</ele>
        <time>2023-04-05T12:14:47Z</time>
      </trkpt>
      <trkpt lat="43.48452" lon="6.31869">
        <ele>272.9</ele>
        <time>2023-04-05T12:14:57Z</time>
      </trkpt>
      <trkpt lat="43.48452" lon="6.31869">
        <ele>272.4</ele>
        <time>2023-04-05T12:15:07Z</time>
      </trkpt>
      <trkpt lat="43.48452" lon="6.3187">
        <ele>273.2</ele>
        <time>2023-04-05T12:15:17Z</time>
      </trkpt>
      <trkpt lat="43.48452" lon="6.31869">
        <ele>273.2</ele>
        <time>2023-04-05T12:15:27Z</time>
      </trkpt>
      <trkpt lat="43.48452" lon="6.31868">
        <ele>273.1</ele>
        <time>2023-04-05T12:15:37Z</time>
      </trkpt>
      <trkpt lat="43.48452" lon="6.31868">
        <ele>273.3</ele>
        <time>2023-04-05T12:15:47Z</time>
      </trkpt>
      <trkpt lat="43.48452" lon="6.31869">
        <ele>273.1</ele>
        <time>2023-04-05T12:15:57Z</time>
      </trkpt>
      <trkpt lat="43.48451" lon="6.31869">
        <ele>273.1</ele>
        <time>2023-04-05T12:16:07Z</time>
      </trkpt>
      <trkpt lat="43.48451" lon="6.31869">
        <ele>273.1</ele>
        <time>2023-04-05T12:16:17Z</time>
      </trkpt>
      <trkpt lat="43.48452" lon="6.31869">
        <ele>273.9</ele>
        <time>2023-04-05T12:16:27Z</time>
      </trkpt>
      <trkpt lat="43.48452" lon="6.3187">
        <ele>273.3</ele>
        <time>2023-04-05T12:16:37Z</time>
      </trkpt>
      <trkpt lat="43.48452" lon="6.3187">
        <ele>272.6</ele>
        <time>2023-04-05T12:16:47Z</time>
      </trkpt>
      <trkpt lat="43.48453" lon="6.3187">
        <ele>273</ele>
        <time>2023-04-05T12:16:57Z</time>
      </trkpt>
      <trkpt lat="43.48453" lon="6.31871">
        <ele>272.8</ele>
        <time>2023-04-05T12:17:07Z</time>
      </trkpt>
      <trkpt lat="43.48458" lon="6.31867">
        <ele>274</ele>
        <time>2023-04-05T12:17:17Z</time>
      </trkpt>
      <trkpt lat="43.48465" lon="6.31861">
        <ele>275.5</ele>
        <time>2023-04-05T12:17:27Z</time>
      </trkpt>
      <trkpt lat="43.48472" lon="6.31858">
        <ele>277</ele>
        <time>2023-04-05T12:17:37Z</time>
      </trkpt>
      <trkpt lat="43.48481" lon="6.31845">
        <ele>277</ele>
        <time>2023-04-05T12:17:47Z</time>
      </trkpt>
      <trkpt lat="43.48486" lon="6.31837">
        <ele>277.8</ele>
        <time>2023-04-05T12:17:57Z</time>
      </trkpt>
      <trkpt lat="43.48494" lon="6.31827">
        <ele>281.3</ele>
        <time>2023-04-05T12:18:07Z</time>
      </trkpt>
      <trkpt lat="43.48504" lon="6.31813">
        <ele>282</ele>
        <time>2023-04-05T12:18:17Z</time>
      </trkpt>
      <trkpt lat="43.48514" lon="6.318">
        <ele>282.8</ele>
        <time>2023-04-05T12:18:27Z</time>
      </trkpt>
      <trkpt lat="43.48526" lon="6.31783">
        <ele>282.9</ele>
        <time>2023-04-05T12:18:37Z</time>
      </trkpt>
      <trkpt lat="43.48535" lon="6.31768">
        <ele>283.5</ele>
        <time>2023-04-05T12:18:47Z</time>
      </trkpt>
      <trkpt lat="43.48544" lon="6.31756">
        <ele>285.4</ele>
        <time>2023-04-05T12:18:57Z</time>
      </trkpt>
      <trkpt lat="43.48551" lon="6.31748">
        <ele>287.5</ele>
        <time>2023-04-05T12:19:07Z</time>
      </trkpt>
      <trkpt lat="43.48559" lon="6.3174">
        <ele>287.5</ele>
        <time>2023-04-05T12:19:17Z</time>
      </trkpt>
      <trkpt lat="43.48563" lon="6.31732">
        <ele>287.8</ele>
        <time>2023-04-05T12:19:27Z</time>
      </trkpt>
      <trkpt lat="43.48562" lon="6.31727">
        <ele>287.2</ele>
        <time>2023-04-05T12:19:37Z</time>
      </trkpt>
      <trkpt lat="43.48562" lon="6.31722">
        <ele>287.5</ele>
        <time>2023-04-05T12:19:47Z</time>
      </trkpt>
      <trkpt lat="43.48562" lon="6.3172">
        <ele>287.8</ele>
        <time>2023-04-05T12:19:57Z</time>
      </trkpt>
      <trkpt lat="43.48562" lon="6.31718">
        <ele>288.1</ele>
        <time>2023-04-05T12:20:07Z</time>
      </trkpt>
      <trkpt lat="43.48562" lon="6.31718">
        <ele>288.6</ele>
        <time>2023-04-05T12:20:17Z</time>
      </trkpt>
      <trkpt lat="43.48562" lon="6.31718">
        <ele>288.3</ele>
        <time>2023-04-05T12:20:27Z</time>
      </trkpt>
      <trkpt lat="43.48561" lon="6.31717">
        <ele>288.7</ele>
        <time>2023-04-05T12:20:37Z</time>
      </trkpt>
      <trkpt lat="43.48562" lon="6.31717">
        <ele>288.1</ele>
        <time>2023-04-05T12:20:47Z</time>
      </trkpt>
      <trkpt lat="43.48562" lon="6.31716">
        <ele>288</ele>
        <time>2023-04-05T12:20:57Z</time>
      </trkpt>
      <trkpt lat="43.48561" lon="6.31716">
        <ele>289.4</ele>
        <time>2023-04-05T12:21:07Z</time>
      </trkpt>
      <trkpt lat="43.48562" lon="6.31716">
        <ele>288.7</ele>
        <time>2023-04-05T12:21:17Z</time>
      </trkpt>
      <trkpt lat="43.48563" lon="6.31717">
        <ele>287.6</ele>
        <time>2023-04-05T12:21:27Z</time>
      </trkpt>
      <trkpt lat="43.48563" lon="6.31716">
        <ele>287.7</ele>
        <time>2023-04-05T12:21:37Z</time>
      </trkpt>
      <trkpt lat="43.48566" lon="6.31723">
        <ele>287.8</ele>
        <time>2023-04-05T12:21:47Z</time>
      </trkpt>
      <trkpt lat="43.48572" lon="6.31731">
        <ele>287.9</ele>
        <time>2023-04-05T12:21:57Z</time>
      </trkpt>
      <trkpt lat="43.48576" lon="6.31737">
        <ele>288.7</ele>
        <time>2023-04-05T12:22:07Z</time>
      </trkpt>
      <trkpt lat="43.48576" lon="6.31741">
        <ele>288.5</ele>
        <time>2023-04-05T12:22:17Z</time>
      </trkpt>
      <trkpt lat="43.48581" lon="6.3175">
        <ele>288</ele>
        <time>2023-04-05T12:22:27Z</time>
      </trkpt>
      <trkpt lat="43.48584" lon="6.31753">
        <ele>287.8</ele>
        <time>2023-04-05T12:22:37Z</time>
      </trkpt>
      <trkpt lat="43.48586" lon="6.31757">
        <ele>287.5</ele>
        <time>2023-04-05T12:22:47Z</time>
      </trkpt>
      <trkpt lat="43.48594" lon="6.31762">
        <ele>287.8</ele>
        <time>2023-04-05T12:22:57Z</time>
      </trkpt>
      <trkpt lat="43.48601" lon="6.31768">
        <ele>287.6</ele>
        <time>2023-04-05T12:23:07Z</time>
      </trkpt>
      <trkpt lat="43.48605" lon="6.3177">
        <ele>287.7</ele>
        <time>2023-04-05T12:23:17Z</time>
      </trkpt>
      <trkpt lat="43.48612" lon="6.31773">
        <ele>287.6</ele>
        <time>2023-04-05T12:23:27Z</time>
      </trkpt>
      <trkpt lat="43.4861" lon="6.31775">
        <ele>287.1</ele>
        <time>2023-04-05T12:23:37Z</time>
      </trkpt>
      <trkpt lat="43.4861" lon="6.31781">
        <ele>286.9</ele>
        <time>2023-04-05T12:23:47Z</time>
      </trkpt>
      <trkpt lat="43.4861" lon="6.31784">
        <ele>286.6</ele>
        <time>2023-04-05T12:23:57Z</time>
      </trkpt>
      <trkpt lat="43.48608" lon="6.31787">
        <ele>285.6</ele>
        <time>2023-04-05T12:24:07Z</time>
      </trkpt>
      <trkpt lat="43.48609" lon="6.31787">
        <ele>285.8</ele>
        <time>2023-04-05T12:24:17Z</time>
      </trkpt>
      <trkpt lat="43.48612" lon="6.3179">
        <ele>284.9</ele>
        <time>2023-04-05T12:24:27Z</time>
      </trkpt>
      <trkpt lat="43.48616" lon="6.31788">
        <ele>284.8</ele>
        <time>2023-04-05T12:24:37Z</time>
      </trkpt>
      <trkpt lat="43.48617" lon="6.31786">
        <ele>285.8</ele>
        <time>2023-04-05T12:24:47Z</time>
      </trkpt>
      <trkpt lat="43.48619" lon="6.31779">
        <ele>286.2</ele>
        <time>2023-04-05T12:24:57Z</time>
      </trkpt>
      <trkpt lat="43.48619" lon="6.31771">
        <ele>287.1</ele>
        <time>2023-04-05T12:25:07Z</time>
      </trkpt>
      <trkpt lat="43.48616" lon="6.31767">
        <ele>287.5</ele>
        <time>2023-04-05T12:25:17Z</time>
      </trkpt>
      <trkpt lat="43.4861" lon="6.31762">
        <ele>287.2</ele>
        <time>2023-04-05T12:25:27Z</time>
      </trkpt>
      <trkpt lat="43.48603" lon="6.31757">
        <ele>287.7</ele>
        <time>2023-04-05T12:25:37Z</time>
      </trkpt>
      <trkpt lat="43.48595" lon="6.31751">
        <ele>287.8</ele>
        <time>2023-04-05T12:25:47Z</time>
      </trkpt>
      <trkpt lat="43.48588" lon="6.31744">
        <ele>287.3</ele>
        <time>2023-04-05T12:25:57Z</time>
      </trkpt>
      <trkpt lat="43.48582" lon="6.31734">
        <ele>287.4</ele>
        <time>2023-04-05T12:26:07Z</time>
      </trkpt>
      <trkpt lat="43.48569" lon="6.31729">
        <ele>287.8</ele>
        <time>2023-04-05T12:26:17Z</time>
      </trkpt>
      <trkpt lat="43.48558" lon="6.31729">
        <ele>288</ele>
        <time>2023-04-05T12:26:27Z</time>
      </trkpt>
      <trkpt lat="43.48555" lon="6.31739">
        <ele>287.8</ele>
        <time>2023-04-05T12:26:37Z</time>
      </trkpt>
      <trkpt lat="43.48556" lon="6.31754">
        <ele>286.7</ele>
        <time>2023-04-05T12:26:47Z</time>
      </trkpt>
      <trkpt lat="43.48555" lon="6.31768">
        <ele>286.9</ele>
        <time>2023-04-05T12:26:57Z</time>
      </trkpt>
      <trkpt lat="43.48556" lon="6.31783">
        <ele>286</ele>
        <time>2023-04-05T12:27:07Z</time>
      </trkpt>
      <trkpt lat="43.48553" lon="6.31793">
        <ele>285.8</ele>
        <time>2023-04-05T12:27:17Z</time>
      </trkpt>
      <trkpt lat="43.48552" lon="6.31799">
        <ele>286</ele>
        <time>2023-04-05T12:27:27Z</time>
      </trkpt>
      <trkpt lat="43.48544" lon="6.31809">
        <ele>285.5</ele>
        <time>2023-04-05T12:27:37Z</time>
      </trkpt>
      <trkpt lat="43.48537" lon="6.31815">
        <ele>286.5</ele>
        <time>2023-04-05T12:27:47Z</time>
      </trkpt>
      <trkpt lat="43.48535" lon="6.3183">
        <ele>286.9</ele>
        <time>2023-04-05T12:27:57Z</time>
      </trkpt>
      <trkpt lat="43.48535" lon="6.31843">
        <ele>287.8</ele>
        <time>2023-04-05T12:28:07Z</time>
      </trkpt>
      <trkpt lat="43.4854" lon="6.31857">
        <ele>288.3</ele>
        <time>2023-04-05T12:28:17Z</time>
      </trkpt>
      <trkpt lat="43.48545" lon="6.31873">
        <ele>289.5</ele>
        <time>2023-04-05T12:28:27Z</time>
      </trkpt>
      <trkpt lat="43.48548" lon="6.31886">
        <ele>289.7</ele>
        <time>2023-04-05T12:28:37Z</time>
      </trkpt>
      <trkpt lat="43.48551" lon="6.319">
        <ele>289.9</ele>
        <time>2023-04-05T12:28:47Z</time>
      </trkpt>
      <trkpt lat="43.48555" lon="6.31915">
        <ele>290.3</ele>
        <time>2023-04-05T12:28:57Z</time>
      </trkpt>
      <trkpt lat="43.48552" lon="6.31926">
        <ele>290.4</ele>
        <time>2023-04-05T12:29:07Z</time>
      </trkpt>
      <trkpt lat="43.48547" lon="6.31933">
        <ele>290.4</ele>
        <time>2023-04-05T12:29:17Z</time>
      </trkpt>
      <trkpt lat="43.48546" lon="6.31937">
        <ele>291.8</ele>
        <time>2023-04-05T12:29:27Z</time>
      </trkpt>
      <trkpt lat="43.48542" lon="6.31941">
        <ele>292</ele>
        <time>2023-04-05T12:29:37Z</time>
      </trkpt>
      <trkpt lat="43.48542" lon="6.31945">
        <ele>292.4</ele>
        <time>2023-04-05T12:29:47Z</time>
      </trkpt>
      <trkpt lat="43.48542" lon="6.31947">
        <ele>292.9</ele>
        <time>2023-04-05T12:29:57Z</time>
      </trkpt>
      <trkpt lat="43.48543" lon="6.31948">
        <ele>291.7</ele>
        <time>2023-04-05T12:30:07Z</time>
      </trkpt>
      <trkpt lat="43.48544" lon="6.31947">
        <ele>291.3</ele>
        <time>2023-04-05T12:30:17Z</time>
      </trkpt>
      <trkpt lat="43.48542" lon="6.3195">
        <ele>292.5</ele>
        <time>2023-04-05T12:30:27Z</time>
      </trkpt>
      <trkpt lat="43.48544" lon="6.31952">
        <ele>292.4</ele>
        <time>2023-04-05T12:30:37Z</time>
      </trkpt>
      <trkpt lat="43.48547" lon="6.31953">
        <ele>290.3</ele>
        <time>2023-04-05T12:30:47Z</time>
      </trkpt>
      <trkpt lat="43.48549" lon="6.31953">
        <ele>291.6</ele>
        <time>2023-04-05T12:30:57Z</time>
      </trkpt>
      <trkpt lat="43.48549" lon="6.31954">
        <ele>292.2</ele>
        <time>2023-04-05T12:31:07Z</time>
      </trkpt>
      <trkpt lat="43.48549" lon="6.31954">
        <ele>293.2</ele>
        <time>2023-04-05T12:31:17Z</time>
      </trkpt>
      <trkpt lat="43.48548" lon="6.31954">
        <ele>292</ele>
        <time>2023-04-05T12:31:27Z</time>
      </trkpt>
      <trkpt lat="43.48548" lon="6.31954">
        <ele>292.4</ele>
        <time>2023-04-05T12:31:37Z</time>
      </trkpt>
      <trkpt lat="43.48548" lon="6.31953">
        <ele>292.3</ele>
        <time>2023-04-05T12:31:47Z</time>
      </trkpt>
      <trkpt lat="43.48549" lon="6.31952">
        <ele>292.5</ele>
        <time>2023-04-05T12:31:57Z</time>
      </trkpt>
      <trkpt lat="43.4855" lon="6.31953">
        <ele>293.2</ele>
        <time>2023-04-05T12:32:07Z</time>
      </trkpt>
      <trkpt lat="43.48551" lon="6.31955">
        <ele>292.5</ele>
        <time>2023-04-05T12:32:17Z</time>
      </trkpt>
      <trkpt lat="43.48551" lon="6.31956">
        <ele>292.9</ele>
        <time>2023-04-05T12:32:27Z</time>
      </trkpt>
      <trkpt lat="43.48551" lon="6.31957">
        <ele>292.9</ele>
        <time>2023-04-05T12:32:37Z</time>
      </trkpt>
      <trkpt lat="43.48551" lon="6.31957">
        <ele>292.6</ele>
        <time>2023-04-05T12:32:47Z</time>
      </trkpt>
      <trkpt lat="43.48551" lon="6.31957">
        <ele>294.2</ele>
        <time>2023-04-05T12:32:57Z</time>
      </trkpt>
      <trkpt lat="43.48551" lon="6.31956">
        <ele>295</ele>
        <time>2023-04-05T12:33:07Z</time>
      </trkpt>
      <trkpt lat="43.48547" lon="6.31951">
        <ele>295</ele>
        <time>2023-04-05T12:33:17Z</time>
      </trkpt>
      <trkpt lat="43.48547" lon="6.3195">
        <ele>293.1</ele>
        <time>2023-04-05T12:33:27Z</time>
      </trkpt>
      <trkpt lat="43.48547" lon="6.3195">
        <ele>291.7</ele>
        <time>2023-04-05T12:33:37Z</time>
      </trkpt>
      <trkpt lat="43.48547" lon="6.31951">
        <ele>291.1</ele>
        <time>2023-04-05T12:33:47Z</time>
      </trkpt>
      <trkpt lat="43.48548" lon="6.31953">
        <ele>290.5</ele>
        <time>2023-04-05T12:33:57Z</time>
      </trkpt>
      <trkpt lat="43.48549" lon="6.31953">
        <ele>292.8</ele>
        <time>2023-04-05T12:34:07Z</time>
      </trkpt>
      <trkpt lat="43.48549" lon="6.31954">
        <ele>292.8</ele>
        <time>2023-04-05T12:34:17Z</time>
      </trkpt>
      <trkpt lat="43.48548" lon="6.31955">
        <ele>293.2</ele>
        <time>2023-04-05T12:34:27Z</time>
      </trkpt>
      <trkpt lat="43.48548" lon="6.31955">
        <ele>293.7</ele>
        <time>2023-04-05T12:34:37Z</time>
      </trkpt>
      <trkpt lat="43.48548" lon="6.31955">
        <ele>293.5</ele>
        <time>2023-04-05T12:34:47Z</time>
      </trkpt>
      <trkpt lat="43.48549" lon="6.31955">
        <ele>293.2</ele>
        <time>2023-04-05T12:34:57Z</time>
      </trkpt>
      <trkpt lat="43.48548" lon="6.31955">
        <ele>293.8</ele>
        <time>2023-04-05T12:35:07Z</time>
      </trkpt>
      <trkpt lat="43.48549" lon="6.31955">
        <ele>294.1</ele>
        <time>2023-04-05T12:35:17Z</time>
      </trkpt>
      <trkpt lat="43.48551" lon="6.31955">
        <ele>293.8</ele>
        <time>2023-04-05T12:35:27Z</time>
      </trkpt>
      <trkpt lat="43.48552" lon="6.31955">
        <ele>293.4</ele>
        <time>2023-04-05T12:35:37Z</time>
      </trkpt>
      <trkpt lat="43.48555" lon="6.31951">
        <ele>293.4</ele>
        <time>2023-04-05T12:35:47Z</time>
      </trkpt>
      <trkpt lat="43.48554" lon="6.31949">
        <ele>292.4</ele>
        <time>2023-04-05T12:35:57Z</time>
      </trkpt>
      <trkpt lat="43.48559" lon="6.3194">
        <ele>291.9</ele>
        <time>2023-04-05T12:36:07Z</time>
      </trkpt>
      <trkpt lat="43.4856" lon="6.31928">
        <ele>291.2</ele>
        <time>2023-04-05T12:36:17Z</time>
      </trkpt>
      <trkpt lat="43.48558" lon="6.31915">
        <ele>289.8</ele>
        <time>2023-04-05T12:36:27Z</time>
      </trkpt>
      <trkpt lat="43.48558" lon="6.319">
        <ele>292.1</ele>
        <time>2023-04-05T12:36:37Z</time>
      </trkpt>
      <trkpt lat="43.48557" lon="6.31888">
        <ele>290.8</ele>
        <time>2023-04-05T12:36:47Z</time>
      </trkpt>
      <trkpt lat="43.4855" lon="6.31875">
        <ele>291</ele>
        <time>2023-04-05T12:36:57Z</time>
      </trkpt>
      <trkpt lat="43.48546" lon="6.31862">
        <ele>290.5</ele>
        <time>2023-04-05T12:37:07Z</time>
      </trkpt>
      <trkpt lat="43.48541" lon="6.31856">
        <ele>289.6</ele>
        <time>2023-04-05T12:37:17Z</time>
      </trkpt>
      <trkpt lat="43.4854" lon="6.31858">
        <ele>288.5</ele>
        <time>2023-04-05T12:37:27Z</time>
      </trkpt>
      <trkpt lat="43.4854" lon="6.31858">
        <ele>290.7</ele>
        <time>2023-04-05T12:37:37Z</time>
      </trkpt>
      <trkpt lat="43.48542" lon="6.31852">
        <ele>289.9</ele>
        <time>2023-04-05T12:37:47Z</time>
      </trkpt>
      <trkpt lat="43.48542" lon="6.31851">
        <ele>288.8</ele>
        <time>2023-04-05T12:37:57Z</time>
      </trkpt>
      <trkpt lat="43.48541" lon="6.3185">
        <ele>289.1</ele>
        <time>2023-04-05T12:38:07Z</time>
      </trkpt>
      <trkpt lat="43.48541" lon="6.3185">
        <ele>290.4</ele>
        <time>2023-04-05T12:38:17Z</time>
      </trkpt>
      <trkpt lat="43.48544" lon="6.31843">
        <ele>289.5</ele>
        <time>2023-04-05T12:38:27Z</time>
      </trkpt>
      <trkpt lat="43.48547" lon="6.3183">
        <ele>288.1</ele>
        <time>2023-04-05T12:38:37Z</time>
      </trkpt>
      <trkpt lat="43.48553" lon="6.31822">
        <ele>288.2</ele>
        <time>2023-04-05T12:38:47Z</time>
      </trkpt>
      <trkpt lat="43.48558" lon="6.3181">
        <ele>287.8</ele>
        <time>2023-04-05T12:38:57Z</time>
      </trkpt>
      <trkpt lat="43.48563" lon="6.31798">
        <ele>287.1</ele>
        <time>2023-04-05T12:39:07Z</time>
      </trkpt>
      <trkpt lat="43.48562" lon="6.31785">
        <ele>287.2</ele>
        <time>2023-04-05T12:39:17Z</time>
      </trkpt>
      <trkpt lat="43.48561" lon="6.31771">
        <ele>287.4</ele>
        <time>2023-04-05T12:39:27Z</time>
      </trkpt>
      <trkpt lat="43.48562" lon="6.31753">
        <ele>287.8</ele>
        <time>2023-04-05T12:39:37Z</time>
      </trkpt>
      <trkpt lat="43.4856" lon="6.31738">
        <ele>287.6</ele>
        <time>2023-04-05T12:39:47Z</time>
      </trkpt>
      <trkpt lat="43.48563" lon="6.31734">
        <ele>287.6</ele>
        <time>2023-04-05T12:39:57Z</time>
      </trkpt>
      <trkpt lat="43.48563" lon="6.31734">
        <ele>288.7</ele>
        <time>2023-04-05T12:40:07Z</time>
      </trkpt>
      <trkpt lat="43.48562" lon="6.31733">
        <ele>288.9</ele>
        <time>2023-04-05T12:40:17Z</time>
      </trkpt>
      <trkpt lat="43.48563" lon="6.31732">
        <ele>289.2</ele>
        <time>2023-04-05T12:40:27Z</time>
      </trkpt>
      <trkpt lat="43.48564" lon="6.31729">
        <ele>288.9</ele>
        <time>2023-04-05T12:40:37Z</time>
      </trkpt>
      <trkpt lat="43.48565" lon="6.31729">
        <ele>289.7</ele>
        <time>2023-04-05T12:40:47Z</time>
      </trkpt>
      <trkpt lat="43.48566" lon="6.31727">
        <ele>290.7</ele>
        <time>2023-04-05T12:40:57Z</time>
      </trkpt>
      <trkpt lat="43.48564" lon="6.31727">
        <ele>290.5</ele>
        <time>2023-04-05T12:41:07Z</time>
      </trkpt>
      <trkpt lat="43.48569" lon="6.31717">
        <ele>291.8</ele>
        <time>2023-04-05T12:41:17Z</time>
      </trkpt>
      <trkpt lat="43.48575" lon="6.31704">
        <ele>290.9</ele>
        <time>2023-04-05T12:41:27Z</time>
      </trkpt>
      <trkpt lat="43.4858" lon="6.31694">
        <ele>290.6</ele>
        <time>2023-04-05T12:41:37Z</time>
      </trkpt>
      <trkpt lat="43.48586" lon="6.31685">
        <ele>293.1</ele>
        <time>2023-04-05T12:41:47Z</time>
      </trkpt>
      <trkpt lat="43.48593" lon="6.31674">
        <ele>292.8</ele>
        <time>2023-04-05T12:41:57Z</time>
      </trkpt>
      <trkpt lat="43.48599" lon="6.31667">
        <ele>293.4</ele>
        <time>2023-04-05T12:42:07Z</time>
      </trkpt>
      <trkpt lat="43.48604" lon="6.31658">
        <ele>294</ele>
        <time>2023-04-05T12:42:17Z</time>
      </trkpt>
      <trkpt lat="43.4861" lon="6.31649">
        <ele>295</ele>
        <time>2023-04-05T12:42:27Z</time>
      </trkpt>
      <trkpt lat="43.48616" lon="6.31632">
        <ele>296.5</ele>
        <time>2023-04-05T12:42:37Z</time>
      </trkpt>
      <trkpt lat="43.4861" lon="6.31619">
        <ele>295.6</ele>
        <time>2023-04-05T12:42:47Z</time>
      </trkpt>
      <trkpt lat="43.48602" lon="6.31608">
        <ele>295.3</ele>
        <time>2023-04-05T12:42:57Z</time>
      </trkpt>
      <trkpt lat="43.48595" lon="6.31597">
        <ele>292.3</ele>
        <time>2023-04-05T12:43:07Z</time>
      </trkpt>
      <trkpt lat="43.48588" lon="6.31588">
        <ele>292.8</ele>
        <time>2023-04-05T12:43:17Z</time>
      </trkpt>
      <trkpt lat="43.48582" lon="6.31579">
        <ele>291.6</ele>
        <time>2023-04-05T12:43:27Z</time>
      </trkpt>
      <trkpt lat="43.48574" lon="6.31569">
        <ele>290.4</ele>
        <time>2023-04-05T12:43:37Z</time>
      </trkpt>
      <trkpt lat="43.48567" lon="6.31559">
        <ele>288.9</ele>
        <time>2023-04-05T12:43:47Z</time>
      </trkpt>
      <trkpt lat="43.4856" lon="6.31549">
        <ele>286.7</ele>
        <time>2023-04-05T12:43:57Z</time>
      </trkpt>
      <trkpt lat="43.48554" lon="6.3154">
        <ele>285.9</ele>
        <time>2023-04-05T12:44:07Z</time>
      </trkpt>
      <trkpt lat="43.48549" lon="6.31532">
        <ele>284.1</ele>
        <time>2023-04-05T12:44:17Z</time>
      </trkpt>
      <trkpt lat="43.48545" lon="6.3152">
        <ele>282.8</ele>
        <time>2023-04-05T12:44:27Z</time>
      </trkpt>
      <trkpt lat="43.48541" lon="6.31509">
        <ele>281.5</ele>
        <time>2023-04-05T12:44:37Z</time>
      </trkpt>
      <trkpt lat="43.48538" lon="6.31497">
        <ele>279.8</ele>
        <time>2023-04-05T12:44:47Z</time>
      </trkpt>
      <trkpt lat="43.48532" lon="6.31484">
        <ele>278.4</ele>
        <time>2023-04-05T12:44:57Z</time>
      </trkpt>
      <trkpt lat="43.48525" lon="6.31468">
        <ele>275.4</ele>
        <time>2023-04-05T12:45:07Z</time>
      </trkpt>
      <trkpt lat="43.48514" lon="6.31458">
        <ele>274.4</ele>
        <time>2023-04-05T12:45:17Z</time>
      </trkpt>
      <trkpt lat="43.48504" lon="6.31445">
        <ele>271.9</ele>
        <time>2023-04-05T12:45:27Z</time>
      </trkpt>
      <trkpt lat="43.48497" lon="6.3143">
        <ele>269.6</ele>
        <time>2023-04-05T12:45:37Z</time>
      </trkpt>
      <trkpt lat="43.48492" lon="6.31413">
        <ele>267.9</ele>
        <time>2023-04-05T12:45:47Z</time>
      </trkpt>
      <trkpt lat="43.48488" lon="6.31394">
        <ele>267.5</ele>
        <time>2023-04-05T12:45:57Z</time>
      </trkpt>
      <trkpt lat="43.48483" lon="6.3138">
        <ele>267.1</ele>
        <time>2023-04-05T12:46:07Z</time>
      </trkpt>
      <trkpt lat="43.4848" lon="6.31366">
        <ele>264.6</ele>
        <time>2023-04-05T12:46:17Z</time>
      </trkpt>
      <trkpt lat="43.48478" lon="6.31353">
        <ele>264.4</ele>
        <time>2023-04-05T12:46:27Z</time>
      </trkpt>
      <trkpt lat="43.48476" lon="6.31339">
        <ele>263.6</ele>
        <time>2023-04-05T12:46:37Z</time>
      </trkpt>
      <trkpt lat="43.48474" lon="6.31327">
        <ele>262.5</ele>
        <time>2023-04-05T12:46:47Z</time>
      </trkpt>
      <trkpt lat="43.48472" lon="6.31316">
        <ele>261.2</ele>
        <time>2023-04-05T12:46:57Z</time>
      </trkpt>
      <trkpt lat="43.48468" lon="6.31304">
        <ele>259.5</ele>
        <time>2023-04-05T12:47:07Z</time>
      </trkpt>
      <trkpt lat="43.48459" lon="6.31296">
        <ele>258.4</ele>
        <time>2023-04-05T12:47:17Z</time>
      </trkpt>
      <trkpt lat="43.4845" lon="6.31291">
        <ele>256.7</ele>
        <time>2023-04-05T12:47:27Z</time>
      </trkpt>
      <trkpt lat="43.48442" lon="6.31289">
        <ele>254.9</ele>
        <time>2023-04-05T12:47:37Z</time>
      </trkpt>
      <trkpt lat="43.48431" lon="6.31284">
        <ele>253.9</ele>
        <time>2023-04-05T12:47:47Z</time>
      </trkpt>
      <trkpt lat="43.48425" lon="6.31277">
        <ele>251.8</ele>
        <time>2023-04-05T12:47:57Z</time>
      </trkpt>
      <trkpt lat="43.48418" lon="6.3127">
        <ele>249.4</ele>
        <time>2023-04-05T12:48:07Z</time>
      </trkpt>
      <trkpt lat="43.48415" lon="6.31261">
        <ele>248.2</ele>
        <time>2023-04-05T12:48:17Z</time>
      </trkpt>
      <trkpt lat="43.48412" lon="6.3125">
        <ele>246.2</ele>
        <time>2023-04-05T12:48:27Z</time>
      </trkpt>
      <trkpt lat="43.48407" lon="6.31243">
        <ele>245.2</ele>
        <time>2023-04-05T12:48:37Z</time>
      </trkpt>
      <trkpt lat="43.48401" lon="6.31238">
        <ele>243</ele>
        <time>2023-04-05T12:48:47Z</time>
      </trkpt>
      <trkpt lat="43.48396" lon="6.31232">
        <ele>240.9</ele>
        <time>2023-04-05T12:48:57Z</time>
      </trkpt>
      <trkpt lat="43.48388" lon="6.31233">
        <ele>239.5</ele>
        <time>2023-04-05T12:49:07Z</time>
      </trkpt>
      <trkpt lat="43.48381" lon="6.31235">
        <ele>238.8</ele>
        <time>2023-04-05T12:49:17Z</time>
      </trkpt>
      <trkpt lat="43.48372" lon="6.31242">
        <ele>237.5</ele>
        <time>2023-04-05T12:49:27Z</time>
      </trkpt>
      <trkpt lat="43.48365" lon="6.3125">
        <ele>237.4</ele>
        <time>2023-04-05T12:49:37Z</time>
      </trkpt>
      <trkpt lat="43.48355" lon="6.31253">
        <ele>236.9</ele>
        <time>2023-04-05T12:49:47Z</time>
      </trkpt>
      <trkpt lat="43.48348" lon="6.31249">
        <ele>235.8</ele>
        <time>2023-04-05T12:49:57Z</time>
      </trkpt>
      <trkpt lat="43.4834" lon="6.31245">
        <ele>234.2</ele>
        <time>2023-04-05T12:50:07Z</time>
      </trkpt>
      <trkpt lat="43.48334" lon="6.31239">
        <ele>231.8</ele>
        <time>2023-04-05T12:50:17Z</time>
      </trkpt>
      <trkpt lat="43.48327" lon="6.31231">
        <ele>230.2</ele>
        <time>2023-04-05T12:50:27Z</time>
      </trkpt>
      <trkpt lat="43.4832" lon="6.31224">
        <ele>228.8</ele>
        <time>2023-04-05T12:50:37Z</time>
      </trkpt>
      <trkpt lat="43.48313" lon="6.31217">
        <ele>225.9</ele>
        <time>2023-04-05T12:50:47Z</time>
      </trkpt>
      <trkpt lat="43.48308" lon="6.31209">
        <ele>224</ele>
        <time>2023-04-05T12:50:57Z</time>
      </trkpt>
      <trkpt lat="43.48303" lon="6.31199">
        <ele>221.5</ele>
        <time>2023-04-05T12:51:07Z</time>
      </trkpt>
      <trkpt lat="43.48294" lon="6.31191">
        <ele>219.3</ele>
        <time>2023-04-05T12:51:17Z</time>
      </trkpt>
      <trkpt lat="43.48288" lon="6.31179">
        <ele>217.6</ele>
        <time>2023-04-05T12:51:27Z</time>
      </trkpt>
      <trkpt lat="43.48277" lon="6.31179">
        <ele>215.4</ele>
        <time>2023-04-05T12:51:37Z</time>
      </trkpt>
      <trkpt lat="43.48266" lon="6.31181">
        <ele>214.3</ele>
        <time>2023-04-05T12:51:47Z</time>
      </trkpt>
      <trkpt lat="43.48254" lon="6.31183">
        <ele>213.8</ele>
        <time>2023-04-05T12:51:57Z</time>
      </trkpt>
      <trkpt lat="43.48243" lon="6.31183">
        <ele>213.3</ele>
        <time>2023-04-05T12:52:07Z</time>
      </trkpt>
      <trkpt lat="43.48234" lon="6.31179">
        <ele>211.9</ele>
        <time>2023-04-05T12:52:17Z</time>
      </trkpt>
      <trkpt lat="43.48231" lon="6.31185">
        <ele>210.4</ele>
        <time>2023-04-05T12:52:27Z</time>
      </trkpt>
      <trkpt lat="43.48231" lon="6.31187">
        <ele>212.2</ele>
        <time>2023-04-05T12:52:37Z</time>
      </trkpt>
      <trkpt lat="43.4823" lon="6.31189">
        <ele>211.7</ele>
        <time>2023-04-05T12:52:47Z</time>
      </trkpt>
      <trkpt lat="43.4823" lon="6.3119">
        <ele>209.9</ele>
        <time>2023-04-05T12:52:57Z</time>
      </trkpt>
      <trkpt lat="43.48231" lon="6.31191">
        <ele>210.5</ele>
        <time>2023-04-05T12:53:07Z</time>
      </trkpt>
      <trkpt lat="43.48231" lon="6.31192">
        <ele>211.6</ele>
        <time>2023-04-05T12:53:17Z</time>
      </trkpt>
      <trkpt lat="43.48231" lon="6.31193">
        <ele>210.5</ele>
        <time>2023-04-05T12:53:27Z</time>
      </trkpt>
      <trkpt lat="43.48231" lon="6.31194">
        <ele>211.5</ele>
        <time>2023-04-05T12:53:37Z</time>
      </trkpt>
      <trkpt lat="43.48233" lon="6.31193">
        <ele>211.5</ele>
        <time>2023-04-05T12:53:47Z</time>
      </trkpt>
      <trkpt lat="43.48232" lon="6.31193">
        <ele>210.5</ele>
        <time>2023-04-05T12:53:57Z</time>
      </trkpt>
      <trkpt lat="43.48232" lon="6.31193">
        <ele>211.8</ele>
        <time>2023-04-05T12:54:07Z</time>
      </trkpt>
      <trkpt lat="43.48232" lon="6.31193">
        <ele>210.8</ele>
        <time>2023-04-05T12:54:17Z</time>
      </trkpt>
      <trkpt lat="43.48231" lon="6.31191">
        <ele>211.7</ele>
        <time>2023-04-05T12:54:27Z</time>
      </trkpt>
      <trkpt lat="43.48234" lon="6.31188">
        <ele>211.4</ele>
        <time>2023-04-05T12:54:37Z</time>
      </trkpt>
      <trkpt lat="43.48238" lon="6.31179">
        <ele>210.3</ele>
        <time>2023-04-05T12:54:47Z</time>
      </trkpt>
      <trkpt lat="43.48246" lon="6.31171">
        <ele>209.1</ele>
        <time>2023-04-05T12:54:57Z</time>
      </trkpt>
      <trkpt lat="43.48253" lon="6.31165">
        <ele>209</ele>
        <time>2023-04-05T12:55:07Z</time>
      </trkpt>
      <trkpt lat="43.48263" lon="6.31158">
        <ele>209</ele>
        <time>2023-04-05T12:55:17Z</time>
      </trkpt>
      <trkpt lat="43.48272" lon="6.31152">
        <ele>209.7</ele>
        <time>2023-04-05T12:55:27Z</time>
      </trkpt>
      <trkpt lat="43.48283" lon="6.31145">
        <ele>210.2</ele>
        <time>2023-04-05T12:55:37Z</time>
      </trkpt>
      <trkpt lat="43.48291" lon="6.31134">
        <ele>209.6</ele>
        <time>2023-04-05T12:55:47Z</time>
      </trkpt>
      <trkpt lat="43.48301" lon="6.31127">
        <ele>209.3</ele>
        <time>2023-04-05T12:55:57Z</time>
      </trkpt>
      <trkpt lat="43.48306" lon="6.31119">
        <ele>210.2</ele>
        <time>2023-04-05T12:56:07Z</time>
      </trkpt>
      <trkpt lat="43.48313" lon="6.31112">
        <ele>210</ele>
        <time>2023-04-05T12:56:17Z</time>
      </trkpt>
      <trkpt lat="43.48319" lon="6.31107">
        <ele>211</ele>
        <time>2023-04-05T12:56:27Z</time>
      </trkpt>
      <trkpt lat="43.48328" lon="6.31103">
        <ele>210.3</ele>
        <time>2023-04-05T12:56:37Z</time>
      </trkpt>
      <trkpt lat="43.48338" lon="6.31103">
        <ele>210.2</ele>
        <time>2023-04-05T12:56:47Z</time>
      </trkpt>
      <trkpt lat="43.4835" lon="6.31099">
        <ele>210.5</ele>
        <time>2023-04-05T12:56:57Z</time>
      </trkpt>
      <trkpt lat="43.4836" lon="6.31095">
        <ele>210.8</ele>
        <time>2023-04-05T12:57:07Z</time>
      </trkpt>
      <trkpt lat="43.4837" lon="6.31092">
        <ele>210.3</ele>
        <time>2023-04-05T12:57:17Z</time>
      </trkpt>
      <trkpt lat="43.48373" lon="6.31091">
        <ele>209.8</ele>
        <time>2023-04-05T12:57:27Z</time>
      </trkpt>
      <trkpt lat="43.48381" lon="6.31089">
        <ele>207.9</ele>
        <time>2023-04-05T12:57:37Z</time>
      </trkpt>
      <trkpt lat="43.48392" lon="6.31086">
        <ele>208.1</ele>
        <time>2023-04-05T12:57:47Z</time>
      </trkpt>
      <trkpt lat="43.48405" lon="6.31083">
        <ele>209</ele>
        <time>2023-04-05T12:57:57Z</time>
      </trkpt>
      <trkpt lat="43.48415" lon="6.31082">
        <ele>209.1</ele>
        <time>2023-04-05T12:58:07Z</time>
      </trkpt>
      <trkpt lat="43.48427" lon="6.31079">
        <ele>208.4</ele>
        <time>2023-04-05T12:58:17Z</time>
      </trkpt>
      <trkpt lat="43.48439" lon="6.31076">
        <ele>210.4</ele>
        <time>2023-04-05T12:58:27Z</time>
      </trkpt>
      <trkpt lat="43.48446" lon="6.31076">
        <ele>210</ele>
        <time>2023-04-05T12:58:37Z</time>
      </trkpt>
      <trkpt lat="43.48457" lon="6.3107">
        <ele>210.7</ele>
        <time>2023-04-05T12:58:47Z</time>
      </trkpt>
      <trkpt lat="43.48471" lon="6.31061">
        <ele>210.3</ele>
        <time>2023-04-05T12:58:57Z</time>
      </trkpt>
      <trkpt lat="43.48482" lon="6.31053">
        <ele>209.9</ele>
        <time>2023-04-05T12:59:07Z</time>
      </trkpt>
      <trkpt lat="43.48491" lon="6.31049">
        <ele>209.4</ele>
        <time>2023-04-05T12:59:17Z</time>
      </trkpt>
      <trkpt lat="43.48502" lon="6.31044">
        <ele>207.9</ele>
        <time>2023-04-05T12:59:27Z</time>
      </trkpt>
      <trkpt lat="43.48513" lon="6.31039">
        <ele>207.5</ele>
        <time>2023-04-05T12:59:37Z</time>
      </trkpt>
      <trkpt lat="43.48522" lon="6.31035">
        <ele>207</ele>
        <time>2023-04-05T12:59:47Z</time>
      </trkpt>
      <trkpt lat="43.48531" lon="6.31031">
        <ele>205.3</ele>
        <time>2023-04-05T12:59:57Z</time>
      </trkpt>
      <trkpt lat="43.48541" lon="6.31024">
        <ele>206.4</ele>
        <time>2023-04-05T13:00:07Z</time>
      </trkpt>
      <trkpt lat="43.48551" lon="6.31021">
        <ele>204.8</ele>
        <time>2023-04-05T13:00:17Z</time>
      </trkpt>
      <trkpt lat="43.48562" lon="6.31019">
        <ele>204.1</ele>
        <time>2023-04-05T13:00:27Z</time>
      </trkpt>
      <trkpt lat="43.48572" lon="6.31019">
        <ele>202.3</ele>
        <time>2023-04-05T13:00:37Z</time>
      </trkpt>
      <trkpt lat="43.48584" lon="6.31019">
        <ele>203</ele>
        <time>2023-04-05T13:00:47Z</time>
      </trkpt>
      <trkpt lat="43.48596" lon="6.31016">
        <ele>205.4</ele>
        <time>2023-04-05T13:00:57Z</time>
      </trkpt>
      <trkpt lat="43.48607" lon="6.31013">
        <ele>205.7</ele>
        <time>2023-04-05T13:01:07Z</time>
      </trkpt>
      <trkpt lat="43.48615" lon="6.31011">
        <ele>205.8</ele>
        <time>2023-04-05T13:01:17Z</time>
      </trkpt>
      <trkpt lat="43.48626" lon="6.31009">
        <ele>206.9</ele>
        <time>2023-04-05T13:01:27Z</time>
      </trkpt>
      <trkpt lat="43.48639" lon="6.31009">
        <ele>206</ele>
        <time>2023-04-05T13:01:37Z</time>
      </trkpt>
      <trkpt lat="43.48652" lon="6.31013">
        <ele>209.4</ele>
        <time>2023-04-05T13:01:47Z</time>
      </trkpt>
      <trkpt lat="43.48661" lon="6.31014">
        <ele>210.2</ele>
        <time>2023-04-05T13:01:57Z</time>
      </trkpt>
      <trkpt lat="43.48671" lon="6.31012">
        <ele>209.8</ele>
        <time>2023-04-05T13:02:07Z</time>
      </trkpt>
      <trkpt lat="43.48683" lon="6.31011">
        <ele>209.9</ele>
        <time>2023-04-05T13:02:17Z</time>
      </trkpt>
      <trkpt lat="43.48694" lon="6.31012">
        <ele>210.3</ele>
        <time>2023-04-05T13:02:27Z</time>
      </trkpt>
      <trkpt lat="43.48704" lon="6.31011">
        <ele>210</ele>
        <time>2023-04-05T13:02:37Z</time>
      </trkpt>
      <trkpt lat="43.48717" lon="6.31006">
        <ele>209.8</ele>
        <time>2023-04-05T13:02:47Z</time>
      </trkpt>
      <trkpt lat="43.48729" lon="6.31007">
        <ele>209.6</ele>
        <time>2023-04-05T13:02:57Z</time>
      </trkpt>
      <trkpt lat="43.48739" lon="6.3101">
        <ele>209.2</ele>
        <time>2023-04-05T13:03:07Z</time>
      </trkpt>
      <trkpt lat="43.4875" lon="6.31011">
        <ele>209.8</ele>
        <time>2023-04-05T13:03:17Z</time>
      </trkpt>
      <trkpt lat="43.48757" lon="6.31011">
        <ele>209.6</ele>
        <time>2023-04-05T13:03:27Z</time>
      </trkpt>
      <trkpt lat="43.4877" lon="6.31005">
        <ele>209.3</ele>
        <time>2023-04-05T13:03:37Z</time>
      </trkpt>
      <trkpt lat="43.4878" lon="6.31002">
        <ele>209.2</ele>
        <time>2023-04-05T13:03:47Z</time>
      </trkpt>
      <trkpt lat="43.4878" lon="6.31">
        <ele>209.2</ele>
        <time>2023-04-05T13:03:57Z</time>
      </trkpt>
      <trkpt lat="43.48778" lon="6.31003">
        <ele>209.6</ele>
        <time>2023-04-05T13:04:07Z</time>
      </trkpt>
      <trkpt lat="43.48774" lon="6.3101">
        <ele>210.1</ele>
        <time>2023-04-05T13:04:17Z</time>
      </trkpt>
      <trkpt lat="43.48771" lon="6.3102">
        <ele>211.2</ele>
        <time>2023-04-05T13:04:27Z</time>
      </trkpt>
      <trkpt lat="43.4877" lon="6.31029">
        <ele>211.6</ele>
        <time>2023-04-05T13:04:37Z</time>
      </trkpt>
      <trkpt lat="43.48769" lon="6.31038">
        <ele>214.7</ele>
        <time>2023-04-05T13:04:47Z</time>
      </trkpt>
      <trkpt lat="43.48773" lon="6.31044">
        <ele>215.7</ele>
        <time>2023-04-05T13:04:57Z</time>
      </trkpt>
      <trkpt lat="43.48781" lon="6.31051">
        <ele>217</ele>
        <time>2023-04-05T13:05:07Z</time>
      </trkpt>
      <trkpt lat="43.48789" lon="6.31055">
        <ele>217.2</ele>
        <time>2023-04-05T13:05:17Z</time>
      </trkpt>
      <trkpt lat="43.48795" lon="6.31053">
        <ele>217.5</ele>
        <time>2023-04-05T13:05:27Z</time>
      </trkpt>
      <trkpt lat="43.48804" lon="6.31054">
        <ele>219</ele>
        <time>2023-04-05T13:05:37Z</time>
      </trkpt>
      <trkpt lat="43.48813" lon="6.31057">
        <ele>219.5</ele>
        <time>2023-04-05T13:05:47Z</time>
      </trkpt>
      <trkpt lat="43.48822" lon="6.31058">
        <ele>219.5</ele>
        <time>2023-04-05T13:05:57Z</time>
      </trkpt>
      <trkpt lat="43.48832" lon="6.31059">
        <ele>219.5</ele>
        <time>2023-04-05T13:06:07Z</time>
      </trkpt>
      <trkpt lat="43.4884" lon="6.31062">
        <ele>220.8</ele>
        <time>2023-04-05T13:06:17Z</time>
      </trkpt>
      <trkpt lat="43.48852" lon="6.31061">
        <ele>221.1</ele>
        <time>2023-04-05T13:06:27Z</time>
      </trkpt>
      <trkpt lat="43.4886" lon="6.31062">
        <ele>221.8</ele>
        <time>2023-04-05T13:06:37Z</time>
      </trkpt>
      <trkpt lat="43.48868" lon="6.31061">
        <ele>221.9</ele>
        <time>2023-04-05T13:06:47Z</time>
      </trkpt>
      <trkpt lat="43.48878" lon="6.31055">
        <ele>221.9</ele>
        <time>2023-04-05T13:06:57Z</time>
      </trkpt>
      <trkpt lat="43.48888" lon="6.31054">
        <ele>222.4</ele>
        <time>2023-04-05T13:07:07Z</time>
      </trkpt>
      <trkpt lat="43.48899" lon="6.31057">
        <ele>222.6</ele>
        <time>2023-04-05T13:07:17Z</time>
      </trkpt>
      <trkpt lat="43.48906" lon="6.3106">
        <ele>223.7</ele>
        <time>2023-04-05T13:07:27Z</time>
      </trkpt>
      <trkpt lat="43.48917" lon="6.31057">
        <ele>224.9</ele>
        <time>2023-04-05T13:07:37Z</time>
      </trkpt>
      <trkpt lat="43.48925" lon="6.31054">
        <ele>225.7</ele>
        <time>2023-04-05T13:07:47Z</time>
      </trkpt>
      <trkpt lat="43.48933" lon="6.31057">
        <ele>226.6</ele>
        <time>2023-04-05T13:07:57Z</time>
      </trkpt>
      <trkpt lat="43.48942" lon="6.31058">
        <ele>225.8</ele>
        <time>2023-04-05T13:08:07Z</time>
      </trkpt>
      <trkpt lat="43.48951" lon="6.31059">
        <ele>226.9</ele>
        <time>2023-04-05T13:08:17Z</time>
      </trkpt>
      <trkpt lat="43.48959" lon="6.31059">
        <ele>226</ele>
        <time>2023-04-05T13:08:27Z</time>
      </trkpt>
      <trkpt lat="43.48968" lon="6.3106">
        <ele>227.5</ele>
        <time>2023-04-05T13:08:37Z</time>
      </trkpt>
      <trkpt lat="43.48978" lon="6.31063">
        <ele>227.7</ele>
        <time>2023-04-05T13:08:47Z</time>
      </trkpt>
      <trkpt lat="43.48988" lon="6.31066">
        <ele>228.8</ele>
        <time>2023-04-05T13:08:57Z</time>
      </trkpt>
      <trkpt lat="43.48999" lon="6.31064">
        <ele>229.7</ele>
        <time>2023-04-05T13:09:07Z</time>
      </trkpt>
      <trkpt lat="43.49007" lon="6.31062">
        <ele>230.6</ele>
        <time>2023-04-05T13:09:17Z</time>
      </trkpt>
      <trkpt lat="43.49016" lon="6.3106">
        <ele>231.9</ele>
        <time>2023-04-05T13:09:27Z</time>
      </trkpt>
      <trkpt lat="43.49025" lon="6.31058">
        <ele>233.4</ele>
        <time>2023-04-05T13:09:37Z</time>
      </trkpt>
      <trkpt lat="43.49037" lon="6.3105">
        <ele>233.6</ele>
        <time>2023-04-05T13:09:47Z</time>
      </trkpt>
      <trkpt lat="43.49043" lon="6.31039">
        <ele>235.9</ele>
        <time>2023-04-05T13:09:57Z</time>
      </trkpt>
      <trkpt lat="43.49043" lon="6.31028">
        <ele>235.1</ele>
        <time>2023-04-05T13:10:07Z</time>
      </trkpt>
      <trkpt lat="43.49044" lon="6.31014">
        <ele>234.1</ele>
        <time>2023-04-05T13:10:17Z</time>
      </trkpt>
      <trkpt lat="43.49037" lon="6.31003">
        <ele>235</ele>
        <time>2023-04-05T13:10:27Z</time>
      </trkpt>
      <trkpt lat="43.49029" lon="6.30996">
        <ele>233.7</ele>
        <time>2023-04-05T13:10:37Z</time>
      </trkpt>
      <trkpt lat="43.49026" lon="6.30994">
        <ele>232.4</ele>
        <time>2023-04-05T13:10:47Z</time>
      </trkpt>
      <trkpt lat="43.49023" lon="6.30996">
        <ele>233.9</ele>
        <time>2023-04-05T13:10:57Z</time>
      </trkpt>
      <trkpt lat="43.49016" lon="6.30988">
        <ele>233.5</ele>
        <time>2023-04-05T13:11:07Z</time>
      </trkpt>
      <trkpt lat="43.49011" lon="6.30983">
        <ele>233.4</ele>
        <time>2023-04-05T13:11:17Z</time>
      </trkpt>
      <trkpt lat="43.49001" lon="6.30974">
        <ele>232.8</ele>
        <time>2023-04-05T13:11:27Z</time>
      </trkpt>
      <trkpt lat="43.48995" lon="6.30966">
        <ele>233</ele>
        <time>2023-04-05T13:11:37Z</time>
      </trkpt>
      <trkpt lat="43.48991" lon="6.30963">
        <ele>233.1</ele>
        <time>2023-04-05T13:11:47Z</time>
      </trkpt>
      <trkpt lat="43.48989" lon="6.30963">
        <ele>231.9</ele>
        <time>2023-04-05T13:11:57Z</time>
      </trkpt>
      <trkpt lat="43.48991" lon="6.30954">
        <ele>233.6</ele>
        <time>2023-04-05T13:12:07Z</time>
      </trkpt>
      <trkpt lat="43.48988" lon="6.30951">
        <ele>233.9</ele>
        <time>2023-04-05T13:12:17Z</time>
      </trkpt>
      <trkpt lat="43.4899" lon="6.30946">
        <ele>233.7</ele>
        <time>2023-04-05T13:12:27Z</time>
      </trkpt>
      <trkpt lat="43.48999" lon="6.30942">
        <ele>234.8</ele>
        <time>2023-04-05T13:12:37Z</time>
      </trkpt>
      <trkpt lat="43.49009" lon="6.30943">
        <ele>236.1</ele>
        <time>2023-04-05T13:12:47Z</time>
      </trkpt>
      <trkpt lat="43.49017" lon="6.30948">
        <ele>237.3</ele>
        <time>2023-04-05T13:12:57Z</time>
      </trkpt>
      <trkpt lat="43.49025" lon="6.30955">
        <ele>237.6</ele>
        <time>2023-04-05T13:13:07Z</time>
      </trkpt>
      <trkpt lat="43.49034" lon="6.30964">
        <ele>238.3</ele>
        <time>2023-04-05T13:13:17Z</time>
      </trkpt>
      <trkpt lat="43.49042" lon="6.3097">
        <ele>238.7</ele>
        <time>2023-04-05T13:13:27Z</time>
      </trkpt>
      <trkpt lat="43.49048" lon="6.30974">
        <ele>239.2</ele>
        <time>2023-04-05T13:13:37Z</time>
      </trkpt>
      <trkpt lat="43.49052" lon="6.30966">
        <ele>241.7</ele>
        <time>2023-04-05T13:13:47Z</time>
      </trkpt>
      <trkpt lat="43.49051" lon="6.30954">
        <ele>242.3</ele>
        <time>2023-04-05T13:13:57Z</time>
      </trkpt>
      <trkpt lat="43.49048" lon="6.3094">
        <ele>242.1</ele>
        <time>2023-04-05T13:14:07Z</time>
      </trkpt>
      <trkpt lat="43.49043" lon="6.30927">
        <ele>241.8</ele>
        <time>2023-04-05T13:14:17Z</time>
      </trkpt>
      <trkpt lat="43.49036" lon="6.30915">
        <ele>241.7</ele>
        <time>2023-04-05T13:14:27Z</time>
      </trkpt>
      <trkpt lat="43.49029" lon="6.30906">
        <ele>242.7</ele>
        <time>2023-04-05T13:14:37Z</time>
      </trkpt>
      <trkpt lat="43.49025" lon="6.30897">
        <ele>243.5</ele>
        <time>2023-04-05T13:14:47Z</time>
      </trkpt>
      <trkpt lat="43.49021" lon="6.30887">
        <ele>243.4</ele>
        <time>2023-04-05T13:14:57Z</time>
      </trkpt>
      <trkpt lat="43.49015" lon="6.30881">
        <ele>244.1</ele>
        <time>2023-04-05T13:15:07Z</time>
      </trkpt>
      <trkpt lat="43.49013" lon="6.30872">
        <ele>244.2</ele>
        <time>2023-04-05T13:15:17Z</time>
      </trkpt>
      <trkpt lat="43.49013" lon="6.30864">
        <ele>243.9</ele>
        <time>2023-04-05T13:15:27Z</time>
      </trkpt>
      <trkpt lat="43.49013" lon="6.30854">
        <ele>244.1</ele>
        <time>2023-04-05T13:15:37Z</time>
      </trkpt>
      <trkpt lat="43.49015" lon="6.30848">
        <ele>243.9</ele>
        <time>2023-04-05T13:15:47Z</time>
      </trkpt>
      <trkpt lat="43.49014" lon="6.30845">
        <ele>243.9</ele>
        <time>2023-04-05T13:15:57Z</time>
      </trkpt>
      <trkpt lat="43.49013" lon="6.30843">
        <ele>244.6</ele>
        <time>2023-04-05T13:16:07Z</time>
      </trkpt>
      <trkpt lat="43.49013" lon="6.30842">
        <ele>244.5</ele>
        <time>2023-04-05T13:16:17Z</time>
      </trkpt>
      <trkpt lat="43.49013" lon="6.30842">
        <ele>244.5</ele>
        <time>2023-04-05T13:16:27Z</time>
      </trkpt>
      <trkpt lat="43.49014" lon="6.30841">
        <ele>244.2</ele>
        <time>2023-04-05T13:16:37Z</time>
      </trkpt>
      <trkpt lat="43.49014" lon="6.3084">
        <ele>242.8</ele>
        <time>2023-04-05T13:16:47Z</time>
      </trkpt>
      <trkpt lat="43.49015" lon="6.30842">
        <ele>245</ele>
        <time>2023-04-05T13:16:57Z</time>
      </trkpt>
      <trkpt lat="43.49015" lon="6.30839">
        <ele>244.3</ele>
        <time>2023-04-05T13:17:07Z</time>
      </trkpt>
      <trkpt lat="43.49015" lon="6.30839">
        <ele>243.3</ele>
        <time>2023-04-05T13:17:17Z</time>
      </trkpt>
      <trkpt lat="43.49015" lon="6.3084">
        <ele>243.3</ele>
        <time>2023-04-05T13:17:27Z</time>
      </trkpt>
      <trkpt lat="43.49016" lon="6.3084">
        <ele>243.9</ele>
        <time>2023-04-05T13:17:37Z</time>
      </trkpt>
      <trkpt lat="43.49017" lon="6.3084">
        <ele>243.4</ele>
        <time>2023-04-05T13:17:47Z</time>
      </trkpt>
      <trkpt lat="43.49017" lon="6.30839">
        <ele>243.9</ele>
        <time>2023-04-05T13:17:57Z</time>
      </trkpt>
      <trkpt lat="43.49017" lon="6.30838">
        <ele>243.8</ele>
        <time>2023-04-05T13:18:07Z</time>
      </trkpt>
      <trkpt lat="43.49016" lon="6.30837">
        <ele>244</ele>
        <time>2023-04-05T13:18:17Z</time>
      </trkpt>
      <trkpt lat="43.49016" lon="6.30836">
        <ele>245.2</ele>
        <time>2023-04-05T13:18:27Z</time>
      </trkpt>
      <trkpt lat="43.49016" lon="6.30835">
        <ele>243.2</ele>
        <time>2023-04-05T13:18:37Z</time>
      </trkpt>
      <trkpt lat="43.49016" lon="6.30834">
        <ele>243.4</ele>
        <time>2023-04-05T13:18:47Z</time>
      </trkpt>
      <trkpt lat="43.49015" lon="6.30833">
        <ele>243.8</ele>
        <time>2023-04-05T13:18:57Z</time>
      </trkpt>
      <trkpt lat="43.49015" lon="6.30831">
        <ele>243</ele>
        <time>2023-04-05T13:19:07Z</time>
      </trkpt>
      <trkpt lat="43.49015" lon="6.30831">
        <ele>243.6</ele>
        <time>2023-04-05T13:19:17Z</time>
      </trkpt>
      <trkpt lat="43.49015" lon="6.30831">
        <ele>244</ele>
        <time>2023-04-05T13:19:27Z</time>
      </trkpt>
      <trkpt lat="43.4902" lon="6.30837">
        <ele>244.1</ele>
        <time>2023-04-05T13:19:37Z</time>
      </trkpt>
      <trkpt lat="43.49027" lon="6.30838">
        <ele>244.7</ele>
        <time>2023-04-05T13:19:47Z</time>
      </trkpt>
      <trkpt lat="43.49033" lon="6.30841">
        <ele>245.9</ele>
        <time>2023-04-05T13:19:57Z</time>
      </trkpt>
      <trkpt lat="43.49041" lon="6.3084">
        <ele>246.7</ele>
        <time>2023-04-05T13:20:07Z</time>
      </trkpt>
      <trkpt lat="43.4905" lon="6.3084">
        <ele>248.7</ele>
        <time>2023-04-05T13:20:17Z</time>
      </trkpt>
      <trkpt lat="43.4906" lon="6.30838">
        <ele>248.5</ele>
        <time>2023-04-05T13:20:27Z</time>
      </trkpt>
      <trkpt lat="43.4907" lon="6.30838">
        <ele>250.1</ele>
        <time>2023-04-05T13:20:37Z</time>
      </trkpt>
      <trkpt lat="43.4908" lon="6.30836">
        <ele>251.4</ele>
        <time>2023-04-05T13:20:47Z</time>
      </trkpt>
      <trkpt lat="43.49089" lon="6.30835">
        <ele>252.7</ele>
        <time>2023-04-05T13:20:57Z</time>
      </trkpt>
      <trkpt lat="43.491" lon="6.30832">
        <ele>254.6</ele>
        <time>2023-04-05T13:21:07Z</time>
      </trkpt>
      <trkpt lat="43.49109" lon="6.30831">
        <ele>256.7</ele>
        <time>2023-04-05T13:21:17Z</time>
      </trkpt>
      <trkpt lat="43.49119" lon="6.30829">
        <ele>258.4</ele>
        <time>2023-04-05T13:21:27Z</time>
      </trkpt>
      <trkpt lat="43.4913" lon="6.30826">
        <ele>259.5</ele>
        <time>2023-04-05T13:21:37Z</time>
      </trkpt>
      <trkpt lat="43.49141" lon="6.30824">
        <ele>260.2</ele>
        <time>2023-04-05T13:21:47Z</time>
      </trkpt>
      <trkpt lat="43.49151" lon="6.30821">
        <ele>261.3</ele>
        <time>2023-04-05T13:21:57Z</time>
      </trkpt>
      <trkpt lat="43.49162" lon="6.30818">
        <ele>263.8</ele>
        <time>2023-04-05T13:22:07Z</time>
      </trkpt>
      <trkpt lat="43.49172" lon="6.30816">
        <ele>265</ele>
        <time>2023-04-05T13:22:17Z</time>
      </trkpt>
      <trkpt lat="43.49183" lon="6.30814">
        <ele>265.9</ele>
        <time>2023-04-05T13:22:27Z</time>
      </trkpt>
      <trkpt lat="43.49188" lon="6.30811">
        <ele>267.5</ele>
        <time>2023-04-05T13:22:37Z</time>
      </trkpt>
      <trkpt lat="43.49187" lon="6.30813">
        <ele>267.2</ele>
        <time>2023-04-05T13:22:47Z</time>
      </trkpt>
      <trkpt lat="43.49184" lon="6.30824">
        <ele>268.3</ele>
        <time>2023-04-05T13:22:57Z</time>
      </trkpt>
      <trkpt lat="43.49183" lon="6.30837">
        <ele>268.8</ele>
        <time>2023-04-05T13:23:07Z</time>
      </trkpt>
      <trkpt lat="43.49182" lon="6.30845">
        <ele>269.8</ele>
        <time>2023-04-05T13:23:17Z</time>
      </trkpt>
      <trkpt lat="43.49184" lon="6.30847">
        <ele>269.3</ele>
        <time>2023-04-05T13:23:27Z</time>
      </trkpt>
      <trkpt lat="43.49185" lon="6.30849">
        <ele>269.3</ele>
        <time>2023-04-05T13:23:37Z</time>
      </trkpt>
      <trkpt lat="43.49186" lon="6.3085">
        <ele>269.6</ele>
        <time>2023-04-05T13:23:47Z</time>
      </trkpt>
      <trkpt lat="43.49188" lon="6.3085">
        <ele>268.2</ele>
        <time>2023-04-05T13:23:57Z</time>
      </trkpt>
      <trkpt lat="43.49186" lon="6.3086">
        <ele>270.2</ele>
        <time>2023-04-05T13:24:07Z</time>
      </trkpt>
      <trkpt lat="43.49185" lon="6.30874">
        <ele>270.5</ele>
        <time>2023-04-05T13:24:17Z</time>
      </trkpt>
      <trkpt lat="43.49182" lon="6.3089">
        <ele>271.3</ele>
        <time>2023-04-05T13:24:27Z</time>
      </trkpt>
      <trkpt lat="43.4918" lon="6.30907">
        <ele>270.1</ele>
        <time>2023-04-05T13:24:37Z</time>
      </trkpt>
      <trkpt lat="43.49176" lon="6.30923">
        <ele>273</ele>
        <time>2023-04-05T13:24:47Z</time>
      </trkpt>
      <trkpt lat="43.49173" lon="6.30938">
        <ele>273.9</ele>
        <time>2023-04-05T13:24:57Z</time>
      </trkpt>
      <trkpt lat="43.49172" lon="6.30951">
        <ele>275.5</ele>
        <time>2023-04-05T13:25:07Z</time>
      </trkpt>
      <trkpt lat="43.4917" lon="6.30969">
        <ele>274.5</ele>
        <time>2023-04-05T13:25:17Z</time>
      </trkpt>
      <trkpt lat="43.49169" lon="6.30987">
        <ele>276.9</ele>
        <time>2023-04-05T13:25:27Z</time>
      </trkpt>
      <trkpt lat="43.49168" lon="6.31006">
        <ele>277.3</ele>
        <time>2023-04-05T13:25:37Z</time>
      </trkpt>
      <trkpt lat="43.4917" lon="6.31024">
        <ele>277.4</ele>
        <time>2023-04-05T13:25:47Z</time>
      </trkpt>
      <trkpt lat="43.49173" lon="6.31042">
        <ele>276.8</ele>
        <time>2023-04-05T13:25:57Z</time>
      </trkpt>
      <trkpt lat="43.49176" lon="6.31058">
        <ele>276.7</ele>
        <time>2023-04-05T13:26:07Z</time>
      </trkpt>
      <trkpt lat="43.49179" lon="6.31075">
        <ele>275.1</ele>
        <time>2023-04-05T13:26:17Z</time>
      </trkpt>
      <trkpt lat="43.49179" lon="6.31093">
        <ele>276</ele>
        <time>2023-04-05T13:26:27Z</time>
      </trkpt>
      <trkpt lat="43.49178" lon="6.31108">
        <ele>278</ele>
        <time>2023-04-05T13:26:37Z</time>
      </trkpt>
      <trkpt lat="43.49176" lon="6.31124">
        <ele>278</ele>
        <time>2023-04-05T13:26:47Z</time>
      </trkpt>
      <trkpt lat="43.49174" lon="6.31137">
        <ele>278.9</ele>
        <time>2023-04-05T13:26:57Z</time>
      </trkpt>
      <trkpt lat="43.49173" lon="6.31152">
        <ele>278.1</ele>
        <time>2023-04-05T13:27:07Z</time>
      </trkpt>
      <trkpt lat="43.4917" lon="6.31167">
        <ele>278.9</ele>
        <time>2023-04-05T13:27:17Z</time>
      </trkpt>
      <trkpt lat="43.49169" lon="6.31182">
        <ele>281</ele>
        <time>2023-04-05T13:27:27Z</time>
      </trkpt>
      <trkpt lat="43.49168" lon="6.31197">
        <ele>282.3</ele>
        <time>2023-04-05T13:27:37Z</time>
      </trkpt>
      <trkpt lat="43.49166" lon="6.31214">
        <ele>283.2</ele>
        <time>2023-04-05T13:27:47Z</time>
      </trkpt>
      <trkpt lat="43.49165" lon="6.3123">
        <ele>283.5</ele>
        <time>2023-04-05T13:27:57Z</time>
      </trkpt>
      <trkpt lat="43.49163" lon="6.31246">
        <ele>286.1</ele>
        <time>2023-04-05T13:28:07Z</time>
      </trkpt>
      <trkpt lat="43.49164" lon="6.31256">
        <ele>288.3</ele>
        <time>2023-04-05T13:28:17Z</time>
      </trkpt>
      <trkpt lat="43.49165" lon="6.3126">
        <ele>287.6</ele>
        <time>2023-04-05T13:28:27Z</time>
      </trkpt>
      <trkpt lat="43.49167" lon="6.31265">
        <ele>287.5</ele>
        <time>2023-04-05T13:28:37Z</time>
      </trkpt>
      <trkpt lat="43.49168" lon="6.31268">
        <ele>286.5</ele>
        <time>2023-04-05T13:28:47Z</time>
      </trkpt>
      <trkpt lat="43.49168" lon="6.31268">
        <ele>287.2</ele>
        <time>2023-04-05T13:28:57Z</time>
      </trkpt>
      <trkpt lat="43.49167" lon="6.31271">
        <ele>286.9</ele>
        <time>2023-04-05T13:29:07Z</time>
      </trkpt>
      <trkpt lat="43.49167" lon="6.31271">
        <ele>287.3</ele>
        <time>2023-04-05T13:29:17Z</time>
      </trkpt>
      <trkpt lat="43.49168" lon="6.3127">
        <ele>287.7</ele>
        <time>2023-04-05T13:29:27Z</time>
      </trkpt>
      <trkpt lat="43.49168" lon="6.31269">
        <ele>287.6</ele>
        <time>2023-04-05T13:29:37Z</time>
      </trkpt>
      <trkpt lat="43.49168" lon="6.31269">
        <ele>287.8</ele>
        <time>2023-04-05T13:29:47Z</time>
      </trkpt>
      <trkpt lat="43.49167" lon="6.31269">
        <ele>288.8</ele>
        <time>2023-04-05T13:29:57Z</time>
      </trkpt>
      <trkpt lat="43.49158" lon="6.31275">
        <ele>289.9</ele>
        <time>2023-04-05T13:30:07Z</time>
      </trkpt>
      <trkpt lat="43.49149" lon="6.31281">
        <ele>289.4</ele>
        <time>2023-04-05T13:30:17Z</time>
      </trkpt>
      <trkpt lat="43.4914" lon="6.31286">
        <ele>289</ele>
        <time>2023-04-05T13:30:27Z</time>
      </trkpt>
      <trkpt lat="43.4913" lon="6.31291">
        <ele>287.9</ele>
        <time>2023-04-05T13:30:37Z</time>
      </trkpt>
      <trkpt lat="43.49121" lon="6.31297">
        <ele>289.2</ele>
        <time>2023-04-05T13:30:47Z</time>
      </trkpt>
      <trkpt lat="43.49111" lon="6.31305">
        <ele>289.8</ele>
        <time>2023-04-05T13:30:57Z</time>
      </trkpt>
      <trkpt lat="43.49103" lon="6.31312">
        <ele>290.3</ele>
        <time>2023-04-05T13:31:07Z</time>
      </trkpt>
      <trkpt lat="43.49093" lon="6.31319">
        <ele>290.6</ele>
        <time>2023-04-05T13:31:17Z</time>
      </trkpt>
      <trkpt lat="43.49083" lon="6.31325">
        <ele>290.6</ele>
        <time>2023-04-05T13:31:27Z</time>
      </trkpt>
      <trkpt lat="43.49073" lon="6.31329">
        <ele>291.4</ele>
        <time>2023-04-05T13:31:37Z</time>
      </trkpt>
      <trkpt lat="43.49063" lon="6.31333">
        <ele>291.3</ele>
        <time>2023-04-05T13:31:47Z</time>
      </trkpt>
      <trkpt lat="43.49054" lon="6.31339">
        <ele>291.7</ele>
        <time>2023-04-05T13:31:57Z</time>
      </trkpt>
      <trkpt lat="43.49044" lon="6.31343">
        <ele>291.9</ele>
        <time>2023-04-05T13:32:07Z</time>
      </trkpt>
      <trkpt lat="43.49034" lon="6.31349">
        <ele>292.3</ele>
        <time>2023-04-05T13:32:17Z</time>
      </trkpt>
      <trkpt lat="43.49024" lon="6.31353">
        <ele>292.4</ele>
        <time>2023-04-05T13:32:27Z</time>
      </trkpt>
      <trkpt lat="43.49014" lon="6.31358">
        <ele>293.3</ele>
        <time>2023-04-05T13:32:37Z</time>
      </trkpt>
      <trkpt lat="43.49004" lon="6.31363">
        <ele>293</ele>
        <time>2023-04-05T13:32:47Z</time>
      </trkpt>
      <trkpt lat="43.48994" lon="6.31368">
        <ele>293.8</ele>
        <time>2023-04-05T13:32:57Z</time>
      </trkpt>
      <trkpt lat="43.48984" lon="6.31374">
        <ele>295.2</ele>
        <time>2023-04-05T13:33:07Z</time>
      </trkpt>
      <trkpt lat="43.48977" lon="6.31386">
        <ele>293.7</ele>
        <time>2023-04-05T13:33:17Z</time>
      </trkpt>
      <trkpt lat="43.48971" lon="6.314">
        <ele>293.4</ele>
        <time>2023-04-05T13:33:27Z</time>
      </trkpt>
      <trkpt lat="43.48962" lon="6.3141">
        <ele>294.9</ele>
        <time>2023-04-05T13:33:37Z</time>
      </trkpt>
      <trkpt lat="43.48952" lon="6.31417">
        <ele>295.4</ele>
        <time>2023-04-05T13:33:47Z</time>
      </trkpt>
      <trkpt lat="43.48943" lon="6.31423">
        <ele>295.6</ele>
        <time>2023-04-05T13:33:57Z</time>
      </trkpt>
      <trkpt lat="43.48938" lon="6.31431">
        <ele>295</ele>
        <time>2023-04-05T13:34:07Z</time>
      </trkpt>
      <trkpt lat="43.48937" lon="6.3143">
        <ele>295.5</ele>
        <time>2023-04-05T13:34:17Z</time>
      </trkpt>
      <trkpt lat="43.48928" lon="6.31433">
        <ele>295.8</ele>
        <time>2023-04-05T13:34:27Z</time>
      </trkpt>
      <trkpt lat="43.48918" lon="6.3144">
        <ele>295.8</ele>
        <time>2023-04-05T13:34:37Z</time>
      </trkpt>
      <trkpt lat="43.48909" lon="6.31448">
        <ele>295.3</ele>
        <time>2023-04-05T13:34:47Z</time>
      </trkpt>
      <trkpt lat="43.489" lon="6.31456">
        <ele>294.7</ele>
        <time>2023-04-05T13:34:57Z</time>
      </trkpt>
      <trkpt lat="43.48889" lon="6.31465">
        <ele>296.5</ele>
        <time>2023-04-05T13:35:07Z</time>
      </trkpt>
      <trkpt lat="43.48879" lon="6.31473">
        <ele>295.4</ele>
        <time>2023-04-05T13:35:17Z</time>
      </trkpt>
      <trkpt lat="43.48869" lon="6.31481">
        <ele>294.7</ele>
        <time>2023-04-05T13:35:27Z</time>
      </trkpt>
      <trkpt lat="43.48861" lon="6.31487">
        <ele>293.8</ele>
        <time>2023-04-05T13:35:37Z</time>
      </trkpt>
      <trkpt lat="43.48849" lon="6.31495">
        <ele>293.8</ele>
        <time>2023-04-05T13:35:47Z</time>
      </trkpt>
      <trkpt lat="43.48838" lon="6.31501">
        <ele>293.1</ele>
        <time>2023-04-05T13:35:57Z</time>
      </trkpt>
      <trkpt lat="43.48827" lon="6.31506">
        <ele>293.1</ele>
        <time>2023-04-05T13:36:07Z</time>
      </trkpt>
      <trkpt lat="43.48816" lon="6.31512">
        <ele>292.1</ele>
        <time>2023-04-05T13:36:17Z</time>
      </trkpt>
      <trkpt lat="43.48807" lon="6.31518">
        <ele>292</ele>
        <time>2023-04-05T13:36:27Z</time>
      </trkpt>
      <trkpt lat="43.48796" lon="6.31525">
        <ele>290.7</ele>
        <time>2023-04-05T13:36:37Z</time>
      </trkpt>
      <trkpt lat="43.48786" lon="6.31532">
        <ele>290.1</ele>
        <time>2023-04-05T13:36:47Z</time>
      </trkpt>
      <trkpt lat="43.48775" lon="6.31537">
        <ele>289.8</ele>
        <time>2023-04-05T13:36:57Z</time>
      </trkpt>
      <trkpt lat="43.48764" lon="6.31545">
        <ele>289.2</ele>
        <time>2023-04-05T13:37:07Z</time>
      </trkpt>
      <trkpt lat="43.48759" lon="6.31555">
        <ele>288.6</ele>
        <time>2023-04-05T13:37:17Z</time>
      </trkpt>
      <trkpt lat="43.48759" lon="6.31559">
        <ele>290.2</ele>
        <time>2023-04-05T13:37:27Z</time>
      </trkpt>
      <trkpt lat="43.48753" lon="6.31567">
        <ele>289.5</ele>
        <time>2023-04-05T13:37:37Z</time>
      </trkpt>
      <trkpt lat="43.48751" lon="6.31581">
        <ele>290.2</ele>
        <time>2023-04-05T13:37:47Z</time>
      </trkpt>
      <trkpt lat="43.48751" lon="6.31595">
        <ele>290.7</ele>
        <time>2023-04-05T13:37:57Z</time>
      </trkpt>
      <trkpt lat="43.48751" lon="6.31609">
        <ele>290.9</ele>
        <time>2023-04-05T13:38:07Z</time>
      </trkpt>
      <trkpt lat="43.48752" lon="6.31623">
        <ele>292</ele>
        <time>2023-04-05T13:38:17Z</time>
      </trkpt>
      <trkpt lat="43.48751" lon="6.31637">
        <ele>292.3</ele>
        <time>2023-04-05T13:38:27Z</time>
      </trkpt>
      <trkpt lat="43.48751" lon="6.31652">
        <ele>292.8</ele>
        <time>2023-04-05T13:38:37Z</time>
      </trkpt>
      <trkpt lat="43.48751" lon="6.31669">
        <ele>293.7</ele>
        <time>2023-04-05T13:38:47Z</time>
      </trkpt>
      <trkpt lat="43.48752" lon="6.31684">
        <ele>293.3</ele>
        <time>2023-04-05T13:38:57Z</time>
      </trkpt>
      <trkpt lat="43.48753" lon="6.31699">
        <ele>293.5</ele>
        <time>2023-04-05T13:39:07Z</time>
      </trkpt>
      <trkpt lat="43.48752" lon="6.31713">
        <ele>292.2</ele>
        <time>2023-04-05T13:39:17Z</time>
      </trkpt>
      <trkpt lat="43.48751" lon="6.31731">
        <ele>291.8</ele>
        <time>2023-04-05T13:39:27Z</time>
      </trkpt>
      <trkpt lat="43.48752" lon="6.31746">
        <ele>291.5</ele>
        <time>2023-04-05T13:39:37Z</time>
      </trkpt>
      <trkpt lat="43.48751" lon="6.3176">
        <ele>290.8</ele>
        <time>2023-04-05T13:39:47Z</time>
      </trkpt>
      <trkpt lat="43.48752" lon="6.31776">
        <ele>290.4</ele>
        <time>2023-04-05T13:39:57Z</time>
      </trkpt>
      <trkpt lat="43.48755" lon="6.31794">
        <ele>289.3</ele>
        <time>2023-04-05T13:40:07Z</time>
      </trkpt>
      <trkpt lat="43.48765" lon="6.31805">
        <ele>288.6</ele>
        <time>2023-04-05T13:40:17Z</time>
      </trkpt>
      <trkpt lat="43.48769" lon="6.31818">
        <ele>287.9</ele>
        <time>2023-04-05T13:40:27Z</time>
      </trkpt>
      <trkpt lat="43.4877" lon="6.31835">
        <ele>287.1</ele>
        <time>2023-04-05T13:40:37Z</time>
      </trkpt>
      <trkpt lat="43.48773" lon="6.31847">
        <ele>286</ele>
        <time>2023-04-05T13:40:47Z</time>
      </trkpt>
      <trkpt lat="43.48776" lon="6.3186">
        <ele>285</ele>
        <time>2023-04-05T13:40:57Z</time>
      </trkpt>
      <trkpt lat="43.48776" lon="6.31874">
        <ele>283.1</ele>
        <time>2023-04-05T13:41:07Z</time>
      </trkpt>
      <trkpt lat="43.48773" lon="6.31886">
        <ele>282.1</ele>
        <time>2023-04-05T13:41:17Z</time>
      </trkpt>
      <trkpt lat="43.48774" lon="6.3189">
        <ele>280.7</ele>
        <time>2023-04-05T13:41:27Z</time>
      </trkpt>
      <trkpt lat="43.48775" lon="6.31888">
        <ele>280.1</ele>
        <time>2023-04-05T13:41:37Z</time>
      </trkpt>
      <trkpt lat="43.48776" lon="6.31887">
        <ele>280.4</ele>
        <time>2023-04-05T13:41:47Z</time>
      </trkpt>
      <trkpt lat="43.48777" lon="6.31887">
        <ele>280.6</ele>
        <time>2023-04-05T13:41:57Z</time>
      </trkpt>
      <trkpt lat="43.48778" lon="6.31888">
        <ele>280.7</ele>
        <time>2023-04-05T13:42:07Z</time>
      </trkpt>
      <trkpt lat="43.48778" lon="6.31889">
        <ele>280.4</ele>
        <time>2023-04-05T13:42:17Z</time>
      </trkpt>
      <trkpt lat="43.48778" lon="6.31891">
        <ele>280.8</ele>
        <time>2023-04-05T13:42:27Z</time>
      </trkpt>
      <trkpt lat="43.48778" lon="6.31891">
        <ele>279.7</ele>
        <time>2023-04-05T13:42:37Z</time>
      </trkpt>
      <trkpt lat="43.48778" lon="6.31891">
        <ele>279</ele>
        <time>2023-04-05T13:42:47Z</time>
      </trkpt>
      <trkpt lat="43.48778" lon="6.31892">
        <ele>279.4</ele>
        <time>2023-04-05T13:42:57Z</time>
      </trkpt>
      <trkpt lat="43.48779" lon="6.31893">
        <ele>279.6</ele>
        <time>2023-04-05T13:43:07Z</time>
      </trkpt>
      <trkpt lat="43.48778" lon="6.31894">
        <ele>279.4</ele>
        <time>2023-04-05T13:43:17Z</time>
      </trkpt>
      <trkpt lat="43.48778" lon="6.31894">
        <ele>279.3</ele>
        <time>2023-04-05T13:43:27Z</time>
      </trkpt>
      <trkpt lat="43.48777" lon="6.31894">
        <ele>279.2</ele>
        <time>2023-04-05T13:43:37Z</time>
      </trkpt>
      <trkpt lat="43.48776" lon="6.31894">
        <ele>279.4</ele>
        <time>2023-04-05T13:43:47Z</time>
      </trkpt>
      <trkpt lat="43.48776" lon="6.31893">
        <ele>279.4</ele>
        <time>2023-04-05T13:43:57Z</time>
      </trkpt>
      <trkpt lat="43.48776" lon="6.31894">
        <ele>279.3</ele>
        <time>2023-04-05T13:44:07Z</time>
      </trkpt>
      <trkpt lat="43.48774" lon="6.31895">
        <ele>279.9</ele>
        <time>2023-04-05T13:44:17Z</time>
      </trkpt>
      <trkpt lat="43.48774" lon="6.31897">
        <ele>277.2</ele>
        <time>2023-04-05T13:44:27Z</time>
      </trkpt>
      <trkpt lat="43.48774" lon="6.319">
        <ele>279.3</ele>
        <time>2023-04-05T13:44:37Z</time>
      </trkpt>
      <trkpt lat="43.48776" lon="6.31899">
        <ele>278.1</ele>
        <time>2023-04-05T13:44:47Z</time>
      </trkpt>
      <trkpt lat="43.48776" lon="6.31899">
        <ele>279.4</ele>
        <time>2023-04-05T13:44:57Z</time>
      </trkpt>
      <trkpt lat="43.48776" lon="6.31901">
        <ele>279.8</ele>
        <time>2023-04-05T13:45:07Z</time>
      </trkpt>
      <trkpt lat="43.48774" lon="6.31909">
        <ele>279.2</ele>
        <time>2023-04-05T13:45:17Z</time>
      </trkpt>
      <trkpt lat="43.48772" lon="6.3192">
        <ele>278.5</ele>
        <time>2023-04-05T13:45:27Z</time>
      </trkpt>
      <trkpt lat="43.48771" lon="6.31929">
        <ele>278.4</ele>
        <time>2023-04-05T13:45:37Z</time>
      </trkpt>
      <trkpt lat="43.48775" lon="6.3194">
        <ele>277.1</ele>
        <time>2023-04-05T13:45:47Z</time>
      </trkpt>
      <trkpt lat="43.4878" lon="6.31951">
        <ele>275.7</ele>
        <time>2023-04-05T13:45:57Z</time>
      </trkpt>
      <trkpt lat="43.48786" lon="6.3196">
        <ele>274.3</ele>
        <time>2023-04-05T13:46:07Z</time>
      </trkpt>
      <trkpt lat="43.48792" lon="6.31972">
        <ele>273.7</ele>
        <time>2023-04-05T13:46:17Z</time>
      </trkpt>
      <trkpt lat="43.48796" lon="6.31984">
        <ele>272.1</ele>
        <time>2023-04-05T13:46:27Z</time>
      </trkpt>
      <trkpt lat="43.48798" lon="6.31996">
        <ele>270.6</ele>
        <time>2023-04-05T13:46:37Z</time>
      </trkpt>
      <trkpt lat="43.48802" lon="6.32006">
        <ele>269.4</ele>
        <time>2023-04-05T13:46:47Z</time>
      </trkpt>
      <trkpt lat="43.48809" lon="6.32019">
        <ele>268.5</ele>
        <time>2023-04-05T13:46:57Z</time>
      </trkpt>
      <trkpt lat="43.48812" lon="6.32028">
        <ele>267.1</ele>
        <time>2023-04-05T13:47:07Z</time>
      </trkpt>
      <trkpt lat="43.48816" lon="6.32039">
        <ele>266.1</ele>
        <time>2023-04-05T13:47:17Z</time>
      </trkpt>
      <trkpt lat="43.48819" lon="6.32051">
        <ele>264.6</ele>
        <time>2023-04-05T13:47:27Z</time>
      </trkpt>
      <trkpt lat="43.48826" lon="6.32064">
        <ele>263.2</ele>
        <time>2023-04-05T13:47:37Z</time>
      </trkpt>
      <trkpt lat="43.48829" lon="6.32076">
        <ele>260.4</ele>
        <time>2023-04-05T13:47:47Z</time>
      </trkpt>
      <trkpt lat="43.48835" lon="6.32087">
        <ele>258.8</ele>
        <time>2023-04-05T13:47:57Z</time>
      </trkpt>
      <trkpt lat="43.4884" lon="6.32099">
        <ele>257.7</ele>
        <time>2023-04-05T13:48:07Z</time>
      </trkpt>
      <trkpt lat="43.48843" lon="6.32111">
        <ele>256.2</ele>
        <time>2023-04-05T13:48:17Z</time>
      </trkpt>
      <trkpt lat="43.48847" lon="6.32124">
        <ele>255.1</ele>
        <time>2023-04-05T13:48:27Z</time>
      </trkpt>
      <trkpt lat="43.48854" lon="6.32138">
        <ele>254.6</ele>
        <time>2023-04-05T13:48:37Z</time>
      </trkpt>
      <trkpt lat="43.48857" lon="6.32148">
        <ele>253.2</ele>
        <time>2023-04-05T13:48:47Z</time>
      </trkpt>
      <trkpt lat="43.4886" lon="6.32155">
        <ele>252</ele>
        <time>2023-04-05T13:48:57Z</time>
      </trkpt>
      <trkpt lat="43.48865" lon="6.32165">
        <ele>249.3</ele>
        <time>2023-04-05T13:49:07Z</time>
      </trkpt>
      <trkpt lat="43.48866" lon="6.32175">
        <ele>247.7</ele>
        <time>2023-04-05T13:49:17Z</time>
      </trkpt>
      <trkpt lat="43.48864" lon="6.32183">
        <ele>246.5</ele>
        <time>2023-04-05T13:49:27Z</time>
      </trkpt>
      <trkpt lat="43.48864" lon="6.32193">
        <ele>245.2</ele>
        <time>2023-04-05T13:49:37Z</time>
      </trkpt>
      <trkpt lat="43.48868" lon="6.32206">
        <ele>243.4</ele>
        <time>2023-04-05T13:49:47Z</time>
      </trkpt>
      <trkpt lat="43.48867" lon="6.32213">
        <ele>241.8</ele>
        <time>2023-04-05T13:49:57Z</time>
      </trkpt>
      <trkpt lat="43.48865" lon="6.32219">
        <ele>241.1</ele>
        <time>2023-04-05T13:50:07Z</time>
      </trkpt>
      <trkpt lat="43.48863" lon="6.32228">
        <ele>239.1</ele>
        <time>2023-04-05T13:50:17Z</time>
      </trkpt>
      <trkpt lat="43.48862" lon="6.32242">
        <ele>239.2</ele>
        <time>2023-04-05T13:50:27Z</time>
      </trkpt>
      <trkpt lat="43.48861" lon="6.32262">
        <ele>239.2</ele>
        <time>2023-04-05T13:50:37Z</time>
      </trkpt>
      <trkpt lat="43.48861" lon="6.32278">
        <ele>239.5</ele>
        <time>2023-04-05T13:50:47Z</time>
      </trkpt>
      <trkpt lat="43.4886" lon="6.32294">
        <ele>239.5</ele>
        <time>2023-04-05T13:50:57Z</time>
      </trkpt>
      <trkpt lat="43.48862" lon="6.3231">
        <ele>238.1</ele>
        <time>2023-04-05T13:51:07Z</time>
      </trkpt>
      <trkpt lat="43.48861" lon="6.32323">
        <ele>237.1</ele>
        <time>2023-04-05T13:51:17Z</time>
      </trkpt>
      <trkpt lat="43.4886" lon="6.32337">
        <ele>235</ele>
        <time>2023-04-05T13:51:27Z</time>
      </trkpt>
      <trkpt lat="43.4886" lon="6.32354">
        <ele>234.5</ele>
        <time>2023-04-05T13:51:37Z</time>
      </trkpt>
      <trkpt lat="43.48864" lon="6.32362">
        <ele>233.3</ele>
        <time>2023-04-05T13:51:47Z</time>
      </trkpt>
      <trkpt lat="43.48869" lon="6.32363">
        <ele>232.7</ele>
        <time>2023-04-05T13:51:57Z</time>
      </trkpt>
      <trkpt lat="43.48868" lon="6.3237">
        <ele>232.3</ele>
        <time>2023-04-05T13:52:07Z</time>
      </trkpt>
      <trkpt lat="43.48868" lon="6.32379">
        <ele>231.7</ele>
        <time>2023-04-05T13:52:17Z</time>
      </trkpt>
      <trkpt lat="43.48869" lon="6.32388">
        <ele>230.7</ele>
        <time>2023-04-05T13:52:27Z</time>
      </trkpt>
      <trkpt lat="43.48867" lon="6.32398">
        <ele>229.9</ele>
        <time>2023-04-05T13:52:37Z</time>
      </trkpt>
      <trkpt lat="43.48868" lon="6.32413">
        <ele>229</ele>
        <time>2023-04-05T13:52:47Z</time>
      </trkpt>
      <trkpt lat="43.48868" lon="6.32425">
        <ele>227.2</ele>
        <time>2023-04-05T13:52:57Z</time>
      </trkpt>
      <trkpt lat="43.48867" lon="6.32438">
        <ele>223.7</ele>
        <time>2023-04-05T13:53:07Z</time>
      </trkpt>
      <trkpt lat="43.48869" lon="6.3245">
        <ele>221.2</ele>
        <time>2023-04-05T13:53:17Z</time>
      </trkpt>
      <trkpt lat="43.48866" lon="6.32461">
        <ele>219.7</ele>
        <time>2023-04-05T13:53:27Z</time>
      </trkpt>
      <trkpt lat="43.48861" lon="6.32473">
        <ele>218</ele>
        <time>2023-04-05T13:53:37Z</time>
      </trkpt>
      <trkpt lat="43.48853" lon="6.32482">
        <ele>215.9</ele>
        <time>2023-04-05T13:53:47Z</time>
      </trkpt>
      <trkpt lat="43.48848" lon="6.32493">
        <ele>214.8</ele>
        <time>2023-04-05T13:53:57Z</time>
      </trkpt>
      <trkpt lat="43.4884" lon="6.32502">
        <ele>214.2</ele>
        <time>2023-04-05T13:54:07Z</time>
      </trkpt>
      <trkpt lat="43.48835" lon="6.32512">
        <ele>212.5</ele>
        <time>2023-04-05T13:54:17Z</time>
      </trkpt>
      <trkpt lat="43.48827" lon="6.3252">
        <ele>210.3</ele>
        <time>2023-04-05T13:54:27Z</time>
      </trkpt>
      <trkpt lat="43.48823" lon="6.32531">
        <ele>208.5</ele>
        <time>2023-04-05T13:54:37Z</time>
      </trkpt>
      <trkpt lat="43.48816" lon="6.3254">
        <ele>206.9</ele>
        <time>2023-04-05T13:54:47Z</time>
      </trkpt>
      <trkpt lat="43.48806" lon="6.32553">
        <ele>206.2</ele>
        <time>2023-04-05T13:54:57Z</time>
      </trkpt>
      <trkpt lat="43.48802" lon="6.32565">
        <ele>205.5</ele>
        <time>2023-04-05T13:55:07Z</time>
      </trkpt>
      <trkpt lat="43.48798" lon="6.32579">
        <ele>204.1</ele>
        <time>2023-04-05T13:55:17Z</time>
      </trkpt>
      <trkpt lat="43.48798" lon="6.32595">
        <ele>203.7</ele>
        <time>2023-04-05T13:55:27Z</time>
      </trkpt>
      <trkpt lat="43.48795" lon="6.32614">
        <ele>203.4</ele>
        <time>2023-04-05T13:55:37Z</time>
      </trkpt>
      <trkpt lat="43.48794" lon="6.3263">
        <ele>204.1</ele>
        <time>2023-04-05T13:55:47Z</time>
      </trkpt>
      <trkpt lat="43.48796" lon="6.32644">
        <ele>204.3</ele>
        <time>2023-04-05T13:55:57Z</time>
      </trkpt>
      <trkpt lat="43.48793" lon="6.3266">
        <ele>205.7</ele>
        <time>2023-04-05T13:56:07Z</time>
      </trkpt>
      <trkpt lat="43.48792" lon="6.32675">
        <ele>205.7</ele>
        <time>2023-04-05T13:56:17Z</time>
      </trkpt>
      <trkpt lat="43.48792" lon="6.32691">
        <ele>207.3</ele>
        <time>2023-04-05T13:56:27Z</time>
      </trkpt>
      <trkpt lat="43.48789" lon="6.32708">
        <ele>208.7</ele>
        <time>2023-04-05T13:56:37Z</time>
      </trkpt>
      <trkpt lat="43.48787" lon="6.32723">
        <ele>209.3</ele>
        <time>2023-04-05T13:56:47Z</time>
      </trkpt>
      <trkpt lat="43.48786" lon="6.3274">
        <ele>208.8</ele>
        <time>2023-04-05T13:56:57Z</time>
      </trkpt>
      <trkpt lat="43.48781" lon="6.32756">
        <ele>209.8</ele>
        <time>2023-04-05T13:57:07Z</time>
      </trkpt>
      <trkpt lat="43.48773" lon="6.32772">
        <ele>211.3</ele>
        <time>2023-04-05T13:57:17Z</time>
      </trkpt>
      <trkpt lat="43.48764" lon="6.32782">
        <ele>209.2</ele>
        <time>2023-04-05T13:57:27Z</time>
      </trkpt>
      <trkpt lat="43.48756" lon="6.32792">
        <ele>208.2</ele>
        <time>2023-04-05T13:57:37Z</time>
      </trkpt>
      <trkpt lat="43.48748" lon="6.32806">
        <ele>208.4</ele>
        <time>2023-04-05T13:57:47Z</time>
      </trkpt>
      <trkpt lat="43.48742" lon="6.3282">
        <ele>206.7</ele>
        <time>2023-04-05T13:57:57Z</time>
      </trkpt>
      <trkpt lat="43.48739" lon="6.32836">
        <ele>201.9</ele>
        <time>2023-04-05T13:58:07Z</time>
      </trkpt>
      <trkpt lat="43.48737" lon="6.32848">
        <ele>200.2</ele>
        <time>2023-04-05T13:58:17Z</time>
      </trkpt>
      <trkpt lat="43.48735" lon="6.32856">
        <ele>198.5</ele>
        <time>2023-04-05T13:58:27Z</time>
      </trkpt>
      <trkpt lat="43.48737" lon="6.3286">
        <ele>197.8</ele>
        <time>2023-04-05T13:58:37Z</time>
      </trkpt>
      <trkpt lat="43.48737" lon="6.32863">
        <ele>196.9</ele>
        <time>2023-04-05T13:58:47Z</time>
      </trkpt>
      <trkpt lat="43.48737" lon="6.32861">
        <ele>197.3</ele>
        <time>2023-04-05T13:58:57Z</time>
      </trkpt>
      <trkpt lat="43.48737" lon="6.32863">
        <ele>197.3</ele>
        <time>2023-04-05T13:59:07Z</time>
      </trkpt>
      <trkpt lat="43.48737" lon="6.32865">
        <ele>197.2</ele>
        <time>2023-04-05T13:59:17Z</time>
      </trkpt>
      <trkpt lat="43.48738" lon="6.32867">
        <ele>198</ele>
        <time>2023-04-05T13:59:27Z</time>
      </trkpt>
      <trkpt lat="43.48737" lon="6.32867">
        <ele>197</ele>
        <time>2023-04-05T13:59:37Z</time>
      </trkpt>
      <trkpt lat="43.48737" lon="6.32868">
        <ele>197</ele>
        <time>2023-04-05T13:59:47Z</time>
      </trkpt>
      <trkpt lat="43.48737" lon="6.32869">
        <ele>197.3</ele>
        <time>2023-04-05T13:59:57Z</time>
      </trkpt>
      <trkpt lat="43.48737" lon="6.32869">
        <ele>196.1</ele>
        <time>2023-04-05T14:00:07Z</time>
      </trkpt>
      <trkpt lat="43.48737" lon="6.3287">
        <ele>196.6</ele>
        <time>2023-04-05T14:00:17Z</time>
      </trkpt>
      <trkpt lat="43.48736" lon="6.3287">
        <ele>197.5</ele>
        <time>2023-04-05T14:00:27Z</time>
      </trkpt>
      <trkpt lat="43.48737" lon="6.32868">
        <ele>197.3</ele>
        <time>2023-04-05T14:00:37Z</time>
      </trkpt>
      <trkpt lat="43.48738" lon="6.32869">
        <ele>197</ele>
        <time>2023-04-05T14:00:47Z</time>
      </trkpt>
      <trkpt lat="43.48739" lon="6.32868">
        <ele>197.4</ele>
        <time>2023-04-05T14:00:57Z</time>
      </trkpt>
      <trkpt lat="43.48738" lon="6.32868">
        <ele>196.1</ele>
        <time>2023-04-05T14:01:07Z</time>
      </trkpt>
      <trkpt lat="43.48739" lon="6.32868">
        <ele>198.7</ele>
        <time>2023-04-05T14:01:17Z</time>
      </trkpt>
      <trkpt lat="43.4874" lon="6.32868">
        <ele>198.9</ele>
        <time>2023-04-05T14:01:27Z</time>
      </trkpt>
      <trkpt lat="43.48743" lon="6.32867">
        <ele>198.5</ele>
        <time>2023-04-05T14:01:37Z</time>
      </trkpt>
      <trkpt lat="43.48745" lon="6.32867">
        <ele>198.1</ele>
        <time>2023-04-05T14:01:47Z</time>
      </trkpt>
      <trkpt lat="43.48746" lon="6.32867">
        <ele>198</ele>
        <time>2023-04-05T14:01:57Z</time>
      </trkpt>
      <trkpt lat="43.48747" lon="6.32867">
        <ele>197.7</ele>
        <time>2023-04-05T14:02:07Z</time>
      </trkpt>
      <trkpt lat="43.48747" lon="6.32867">
        <ele>197.7</ele>
        <time>2023-04-05T14:02:17Z</time>
      </trkpt>
      <trkpt lat="43.48748" lon="6.32868">
        <ele>197.5</ele>
        <time>2023-04-05T14:02:27Z</time>
      </trkpt>
      <trkpt lat="43.4875" lon="6.32867">
        <ele>198</ele>
        <time>2023-04-05T14:02:37Z</time>
      </trkpt>
      <trkpt lat="43.48749" lon="6.32867">
        <ele>197.6</ele>
        <time>2023-04-05T14:02:47Z</time>
      </trkpt>
      <trkpt lat="43.48748" lon="6.32868">
        <ele>198</ele>
        <time>2023-04-05T14:02:57Z</time>
      </trkpt>
      <trkpt lat="43.4875" lon="6.32868">
        <ele>197.9</ele>
        <time>2023-04-05T14:03:07Z</time>
      </trkpt>
      <trkpt lat="43.48751" lon="6.32868">
        <ele>197.7</ele>
        <time>2023-04-05T14:03:17Z</time>
      </trkpt>
      <trkpt lat="43.48751" lon="6.32868">
        <ele>197.8</ele>
        <time>2023-04-05T14:03:27Z</time>
      </trkpt>
      <trkpt lat="43.48751" lon="6.32867">
        <ele>197.7</ele>
        <time>2023-04-05T14:03:37Z</time>
      </trkpt>
      <trkpt lat="43.48751" lon="6.32866">
        <ele>197.8</ele>
        <time>2023-04-05T14:03:47Z</time>
      </trkpt>
      <trkpt lat="43.48751" lon="6.32863">
        <ele>197.3</ele>
        <time>2023-04-05T14:03:57Z</time>
      </trkpt>
      <trkpt lat="43.4875" lon="6.32863">
        <ele>197.5</ele>
        <time>2023-04-05T14:04:07Z</time>
      </trkpt>
      <trkpt lat="43.48749" lon="6.32865">
        <ele>198.5</ele>
        <time>2023-04-05T14:04:17Z</time>
      </trkpt>
      <trkpt lat="43.48748" lon="6.32866">
        <ele>198</ele>
        <time>2023-04-05T14:04:27Z</time>
      </trkpt>
      <trkpt lat="43.48747" lon="6.32866">
        <ele>197.6</ele>
        <time>2023-04-05T14:04:37Z</time>
      </trkpt>
      <trkpt lat="43.48746" lon="6.32865">
        <ele>197.9</ele>
        <time>2023-04-05T14:04:47Z</time>
      </trkpt>
      <trkpt lat="43.48745" lon="6.32866">
        <ele>197.9</ele>
        <time>2023-04-05T14:04:57Z</time>
      </trkpt>
      <trkpt lat="43.48744" lon="6.32867">
        <ele>196.8</ele>
        <time>2023-04-05T14:05:07Z</time>
      </trkpt>
      <trkpt lat="43.48743" lon="6.3287">
        <ele>196.9</ele>
        <time>2023-04-05T14:05:17Z</time>
      </trkpt>
      <trkpt lat="43.48742" lon="6.3287">
        <ele>197.9</ele>
        <time>2023-04-05T14:05:27Z</time>
      </trkpt>
      <trkpt lat="43.48741" lon="6.32874">
        <ele>197.7</ele>
        <time>2023-04-05T14:05:37Z</time>
      </trkpt>
      <trkpt lat="43.48739" lon="6.32883">
        <ele>197.2</ele>
        <time>2023-04-05T14:05:47Z</time>
      </trkpt>
      <trkpt lat="43.4874" lon="6.32894">
        <ele>195.7</ele>
        <time>2023-04-05T14:05:57Z</time>
      </trkpt>
      <trkpt lat="43.4874" lon="6.32903">
        <ele>193.7</ele>
        <time>2023-04-05T14:06:07Z</time>
      </trkpt>
      <trkpt lat="43.4874" lon="6.32915">
        <ele>191.7</ele>
        <time>2023-04-05T14:06:17Z</time>
      </trkpt>
      <trkpt lat="43.4874" lon="6.32928">
        <ele>189.7</ele>
        <time>2023-04-05T14:06:27Z</time>
      </trkpt>
      <trkpt lat="43.48741" lon="6.3294">
        <ele>187.4</ele>
        <time>2023-04-05T14:06:37Z</time>
      </trkpt>
      <trkpt lat="43.48743" lon="6.32951">
        <ele>185.5</ele>
        <time>2023-04-05T14:06:47Z</time>
      </trkpt>
      <trkpt lat="43.48743" lon="6.32964">
        <ele>183.5</ele>
        <time>2023-04-05T14:06:57Z</time>
      </trkpt>
      <trkpt lat="43.48743" lon="6.32972">
        <ele>181.1</ele>
        <time>2023-04-05T14:07:07Z</time>
      </trkpt>
      <trkpt lat="43.48743" lon="6.32987">
        <ele>180.4</ele>
        <time>2023-04-05T14:07:17Z</time>
      </trkpt>
      <trkpt lat="43.48746" lon="6.32999">
        <ele>179.4</ele>
        <time>2023-04-05T14:07:27Z</time>
      </trkpt>
      <trkpt lat="43.48746" lon="6.33009">
        <ele>178.4</ele>
        <time>2023-04-05T14:07:37Z</time>
      </trkpt>
      <trkpt lat="43.48743" lon="6.33023">
        <ele>175.8</ele>
        <time>2023-04-05T14:07:47Z</time>
      </trkpt>
      <trkpt lat="43.48745" lon="6.33039">
        <ele>174.7</ele>
        <time>2023-04-05T14:07:57Z</time>
      </trkpt>
      <trkpt lat="43.48746" lon="6.33054">
        <ele>174.7</ele>
        <time>2023-04-05T14:08:07Z</time>
      </trkpt>
      <trkpt lat="43.48748" lon="6.3306">
        <ele>176.9</ele>
        <time>2023-04-05T14:08:17Z</time>
      </trkpt>
      <trkpt lat="43.48748" lon="6.33062">
        <ele>176.4</ele>
        <time>2023-04-05T14:08:27Z</time>
      </trkpt>
      <trkpt lat="43.48747" lon="6.33064">
        <ele>175.6</ele>
        <time>2023-04-05T14:08:37Z</time>
      </trkpt>
      <trkpt lat="43.4874" lon="6.33068">
        <ele>175.5</ele>
        <time>2023-04-05T14:08:47Z</time>
      </trkpt>
      <trkpt lat="43.4874" lon="6.33071">
        <ele>175.8</ele>
        <time>2023-04-05T14:08:57Z</time>
      </trkpt>
      <trkpt lat="43.48739" lon="6.33071">
        <ele>175.2</ele>
        <time>2023-04-05T14:09:07Z</time>
      </trkpt>
      <trkpt lat="43.48735" lon="6.3307">
        <ele>174.9</ele>
        <time>2023-04-05T14:09:17Z</time>
      </trkpt>
      <trkpt lat="43.48727" lon="6.33072">
        <ele>175.1</ele>
        <time>2023-04-05T14:09:27Z</time>
      </trkpt>
      <trkpt lat="43.48717" lon="6.33073">
        <ele>174.4</ele>
        <time>2023-04-05T14:09:37Z</time>
      </trkpt>
      <trkpt lat="43.48708" lon="6.33076">
        <ele>173.8</ele>
        <time>2023-04-05T14:09:47Z</time>
      </trkpt>
      <trkpt lat="43.48697" lon="6.33077">
        <ele>173.1</ele>
        <time>2023-04-05T14:09:57Z</time>
      </trkpt>
      <trkpt lat="43.48688" lon="6.3308">
        <ele>173.6</ele>
        <time>2023-04-05T14:10:07Z</time>
      </trkpt>
      <trkpt lat="43.48676" lon="6.33084">
        <ele>173.5</ele>
        <time>2023-04-05T14:10:17Z</time>
      </trkpt>
      <trkpt lat="43.48666" lon="6.3309">
        <ele>172.4</ele>
        <time>2023-04-05T14:10:27Z</time>
      </trkpt>
      <trkpt lat="43.48659" lon="6.33093">
        <ele>172.2</ele>
        <time>2023-04-05T14:10:37Z</time>
      </trkpt>
      <trkpt lat="43.48656" lon="6.33097">
        <ele>171.7</ele>
        <time>2023-04-05T14:10:47Z</time>
      </trkpt>
      <trkpt lat="43.48652" lon="6.33102">
        <ele>172.3</ele>
        <time>2023-04-05T14:10:57Z</time>
      </trkpt>
      <trkpt lat="43.48649" lon="6.33105">
        <ele>171.8</ele>
        <time>2023-04-05T14:11:07Z</time>
      </trkpt>
      <trkpt lat="43.48644" lon="6.33113">
        <ele>171.4</ele>
        <time>2023-04-05T14:11:17Z</time>
      </trkpt>
      <trkpt lat="43.48639" lon="6.33118">
        <ele>171.6</ele>
        <time>2023-04-05T14:11:27Z</time>
      </trkpt>
      <trkpt lat="43.48634" lon="6.33126">
        <ele>170.8</ele>
        <time>2023-04-05T14:11:37Z</time>
      </trkpt>
      <trkpt lat="43.48629" lon="6.33137">
        <ele>170.3</ele>
        <time>2023-04-05T14:11:47Z</time>
      </trkpt>
      <trkpt lat="43.48624" lon="6.33145">
        <ele>170.2</ele>
        <time>2023-04-05T14:11:57Z</time>
      </trkpt>
      <trkpt lat="43.48619" lon="6.33155">
        <ele>169.1</ele>
        <time>2023-04-05T14:12:07Z</time>
      </trkpt>
      <trkpt lat="43.48616" lon="6.3317">
        <ele>168.9</ele>
        <time>2023-04-05T14:12:17Z</time>
      </trkpt>
      <trkpt lat="43.4861" lon="6.33181">
        <ele>168.8</ele>
        <time>2023-04-05T14:12:27Z</time>
      </trkpt>
      <trkpt lat="43.48603" lon="6.33189">
        <ele>167.1</ele>
        <time>2023-04-05T14:12:37Z</time>
      </trkpt>
      <trkpt lat="43.48595" lon="6.33196">
        <ele>167.3</ele>
        <time>2023-04-05T14:12:47Z</time>
      </trkpt>
      <trkpt lat="43.48585" lon="6.33206">
        <ele>166.9</ele>
        <time>2023-04-05T14:12:57Z</time>
      </trkpt>
      <trkpt lat="43.48578" lon="6.33219">
        <ele>166.4</ele>
        <time>2023-04-05T14:13:07Z</time>
      </trkpt>
      <trkpt lat="43.48569" lon="6.33233">
        <ele>165.7</ele>
        <time>2023-04-05T14:13:17Z</time>
      </trkpt>
      <trkpt lat="43.48561" lon="6.33245">
        <ele>163.7</ele>
        <time>2023-04-05T14:13:27Z</time>
      </trkpt>
      <trkpt lat="43.48554" lon="6.3326">
        <ele>163.9</ele>
        <time>2023-04-05T14:13:37Z</time>
      </trkpt>
      <trkpt lat="43.4855" lon="6.33279">
        <ele>162.9</ele>
        <time>2023-04-05T14:13:47Z</time>
      </trkpt>
      <trkpt lat="43.48544" lon="6.33295">
        <ele>163.6</ele>
        <time>2023-04-05T14:13:57Z</time>
      </trkpt>
      <trkpt lat="43.48539" lon="6.33306">
        <ele>162.5</ele>
        <time>2023-04-05T14:14:07Z</time>
      </trkpt>
      <trkpt lat="43.48533" lon="6.33311">
        <ele>162.4</ele>
        <time>2023-04-05T14:14:17Z</time>
      </trkpt>
      <trkpt lat="43.48525" lon="6.33322">
        <ele>161.3</ele>
        <time>2023-04-05T14:14:27Z</time>
      </trkpt>
      <trkpt lat="43.48517" lon="6.33328">
        <ele>163</ele>
        <time>2023-04-05T14:14:37Z</time>
      </trkpt>
      <trkpt lat="43.48505" lon="6.33342">
        <ele>162.6</ele>
        <time>2023-04-05T14:14:47Z</time>
      </trkpt>
      <trkpt lat="43.48495" lon="6.33351">
        <ele>162.1</ele>
        <time>2023-04-05T14:14:57Z</time>
      </trkpt>
      <trkpt lat="43.4849" lon="6.33352">
        <ele>161.8</ele>
        <time>2023-04-05T14:15:07Z</time>
      </trkpt>
      <trkpt lat="43.48491" lon="6.33346">
        <ele>161.7</ele>
        <time>2023-04-05T14:15:17Z</time>
      </trkpt>
      <trkpt lat="43.48485" lon="6.33339">
        <ele>163</ele>
        <time>2023-04-05T14:15:27Z</time>
      </trkpt>
      <trkpt lat="43.4848" lon="6.33338">
        <ele>161.9</ele>
        <time>2023-04-05T14:15:37Z</time>
      </trkpt>
      <trkpt lat="43.48471" lon="6.33336">
        <ele>162.9</ele>
        <time>2023-04-05T14:15:47Z</time>
      </trkpt>
      <trkpt lat="43.4846" lon="6.33338">
        <ele>162.2</ele>
        <time>2023-04-05T14:15:57Z</time>
      </trkpt>
      <trkpt lat="43.48461" lon="6.33336">
        <ele>165.2</ele>
        <time>2023-04-05T14:16:07Z</time>
      </trkpt>
      <trkpt lat="43.48465" lon="6.33326">
        <ele>165.7</ele>
        <time>2023-04-05T14:16:17Z</time>
      </trkpt>
      <trkpt lat="43.4847" lon="6.33314">
        <ele>167.2</ele>
        <time>2023-04-05T14:16:27Z</time>
      </trkpt>
      <trkpt lat="43.48473" lon="6.333">
        <ele>166.5</ele>
        <time>2023-04-05T14:16:37Z</time>
      </trkpt>
      <trkpt lat="43.48474" lon="6.33286">
        <ele>168.4</ele>
        <time>2023-04-05T14:16:47Z</time>
      </trkpt>
      <trkpt lat="43.48476" lon="6.33273">
        <ele>170.4</ele>
        <time>2023-04-05T14:16:57Z</time>
      </trkpt>
      <trkpt lat="43.48475" lon="6.33258">
        <ele>170.4</ele>
        <time>2023-04-05T14:17:07Z</time>
      </trkpt>
      <trkpt lat="43.48472" lon="6.33244">
        <ele>171.1</ele>
        <time>2023-04-05T14:17:17Z</time>
      </trkpt>
      <trkpt lat="43.48468" lon="6.3323">
        <ele>171.3</ele>
        <time>2023-04-05T14:17:27Z</time>
      </trkpt>
      <trkpt lat="43.48468" lon="6.33218">
        <ele>172.8</ele>
        <time>2023-04-05T14:17:37Z</time>
      </trkpt>
      <trkpt lat="43.48465" lon="6.33204">
        <ele>175.5</ele>
        <time>2023-04-05T14:17:47Z</time>
      </trkpt>
      <trkpt lat="43.48461" lon="6.3319">
        <ele>175.6</ele>
        <time>2023-04-05T14:17:57Z</time>
      </trkpt>
      <trkpt lat="43.48456" lon="6.33178">
        <ele>175.1</ele>
        <time>2023-04-05T14:18:07Z</time>
      </trkpt>
      <trkpt lat="43.48451" lon="6.33171">
        <ele>174.8</ele>
        <time>2023-04-05T14:18:17Z</time>
      </trkpt>
      <trkpt lat="43.48448" lon="6.33157">
        <ele>173.6</ele>
        <time>2023-04-05T14:18:27Z</time>
      </trkpt>
      <trkpt lat="43.48444" lon="6.33146">
        <ele>177.3</ele>
        <time>2023-04-05T14:18:37Z</time>
      </trkpt>
      <trkpt lat="43.48443" lon="6.33136">
        <ele>177.8</ele>
        <time>2023-04-05T14:18:47Z</time>
      </trkpt>
      <trkpt lat="43.4844" lon="6.33122">
        <ele>178.2</ele>
        <time>2023-04-05T14:18:57Z</time>
      </trkpt>
      <trkpt lat="43.4844" lon="6.33114">
        <ele>178.9</ele>
        <time>2023-04-05T14:19:07Z</time>
      </trkpt>
      <trkpt lat="43.48437" lon="6.33113">
        <ele>178.9</ele>
        <time>2023-04-05T14:19:17Z</time>
      </trkpt>
      <trkpt lat="43.48437" lon="6.33112">
        <ele>179.2</ele>
        <time>2023-04-05T14:19:27Z</time>
      </trkpt>
      <trkpt lat="43.48435" lon="6.33112">
        <ele>178.9</ele>
        <time>2023-04-05T14:19:37Z</time>
      </trkpt>
      <trkpt lat="43.48436" lon="6.33111">
        <ele>179.1</ele>
        <time>2023-04-05T14:19:47Z</time>
      </trkpt>
      <trkpt lat="43.48437" lon="6.33108">
        <ele>179.3</ele>
        <time>2023-04-05T14:19:57Z</time>
      </trkpt>
      <trkpt lat="43.48443" lon="6.33107">
        <ele>178.6</ele>
        <time>2023-04-05T14:20:07Z</time>
      </trkpt>
      <trkpt lat="43.48448" lon="6.33108">
        <ele>178.3</ele>
        <time>2023-04-05T14:20:17Z</time>
      </trkpt>
      <trkpt lat="43.48457" lon="6.33104">
        <ele>179.2</ele>
        <time>2023-04-05T14:20:27Z</time>
      </trkpt>
      <trkpt lat="43.48461" lon="6.33092">
        <ele>178.6</ele>
        <time>2023-04-05T14:20:37Z</time>
      </trkpt>
      <trkpt lat="43.48461" lon="6.33077">
        <ele>179.3</ele>
        <time>2023-04-05T14:20:47Z</time>
      </trkpt>
      <trkpt lat="43.48459" lon="6.33068">
        <ele>181</ele>
        <time>2023-04-05T14:20:57Z</time>
      </trkpt>
      <trkpt lat="43.4846" lon="6.33059">
        <ele>180.3</ele>
        <time>2023-04-05T14:21:07Z</time>
      </trkpt>
      <trkpt lat="43.48461" lon="6.33053">
        <ele>182.8</ele>
        <time>2023-04-05T14:21:17Z</time>
      </trkpt>
      <trkpt lat="43.48461" lon="6.33053">
        <ele>182.4</ele>
        <time>2023-04-05T14:21:27Z</time>
      </trkpt>
      <trkpt lat="43.48461" lon="6.33054">
        <ele>181.7</ele>
        <time>2023-04-05T14:21:37Z</time>
      </trkpt>
      <trkpt lat="43.48462" lon="6.33057">
        <ele>181.9</ele>
        <time>2023-04-05T14:21:47Z</time>
      </trkpt>
      <trkpt lat="43.48462" lon="6.33053">
        <ele>182.7</ele>
        <time>2023-04-05T14:21:57Z</time>
      </trkpt>
      <trkpt lat="43.48461" lon="6.33051">
        <ele>182.3</ele>
        <time>2023-04-05T14:22:07Z</time>
      </trkpt>
      <trkpt lat="43.48462" lon="6.33046">
        <ele>183</ele>
        <time>2023-04-05T14:22:17Z</time>
      </trkpt>
      <trkpt lat="43.48464" lon="6.33033">
        <ele>183.9</ele>
        <time>2023-04-05T14:22:27Z</time>
      </trkpt>
      <trkpt lat="43.48462" lon="6.33031">
        <ele>184.2</ele>
        <time>2023-04-05T14:22:37Z</time>
      </trkpt>
      <trkpt lat="43.48462" lon="6.3303">
        <ele>184.3</ele>
        <time>2023-04-05T14:22:47Z</time>
      </trkpt>
      <trkpt lat="43.48461" lon="6.33031">
        <ele>184.1</ele>
        <time>2023-04-05T14:22:57Z</time>
      </trkpt>
      <trkpt lat="43.48461" lon="6.33032">
        <ele>184</ele>
        <time>2023-04-05T14:23:07Z</time>
      </trkpt>
      <trkpt lat="43.48461" lon="6.33032">
        <ele>184.4</ele>
        <time>2023-04-05T14:23:17Z</time>
      </trkpt>
      <trkpt lat="43.48461" lon="6.33029">
        <ele>184.5</ele>
        <time>2023-04-05T14:23:27Z</time>
      </trkpt>
      <trkpt lat="43.48461" lon="6.33027">
        <ele>183.7</ele>
        <time>2023-04-05T14:23:35Z</time>
      </trkpt>
    </trkseg>
  </trk>
</gpx>